Mount VernonWeather Station
Hourly Leaf Wetness Data

Source: University of Missouri

To the bottom of the page

Year Month Day Hour Leaf Wetness Total
Precipitation
Avg. Temp Avg. Rel.
Humidity
Wind
Speed
CST mV in mm F C % mph
2018 04 08 1:00 261.9 0.0 0.00 29.4 -1.5 56.22 0.7
2018 04 08 2:00 263.1 0.0 0.00 27.3 -2.6 66.23 0.0
2018 04 08 3:00 264.0 0.0 0.00 26.2 -3.2 72.64 0.3
2018 04 08 4:00 264.5 0.0 0.00 24.9 -3.9 79.53 1.8
2018 04 08 5:00 263.7 0.0 0.00 26.8 -2.9 71.26 2.4
2018 04 08 6:00 262.7 0.0 0.00 28.8 -1.8 65.25 2.9
2018 04 08 7:00 263.0 0.0 0.00 30.5 -0.8 61.25 7.4
2018 04 08 8:00 262.9 0.0 0.00 32.2 0.1 56.13 6.6
2018 04 08 9:00 263.2 0.0 0.00 32.1 0.1 60.09 9.6
2018 04 08 10:00 263.4 0.0 0.00 33.1 0.6 62.99 9.9
2018 04 08 11:00 262.7 0.0 0.00 35.2 1.8 54.47 9.9
2018 04 08 12:00 262.2 0.0 0.00 36.1 2.3 48.88 11.9
2018 04 08 13:00 262.0 0.0 0.00 37.2 2.9 48.65 10.8
2018 04 08 14:00 261.3 0.0 0.00 39.9 4.4 44.22 12.9
2018 04 08 15:00 261.4 0.0 0.00 40.5 4.7 43.38 8.3
2018 04 08 16:00 261.2 0.0 0.00 42.0 5.6 43.49 8.4
2018 04 08 17:00 261.5 0.0 0.00 42.6 5.9 42.21 10.5
2018 04 08 18:00 261.8 0.0 0.00 41.8 5.5 43.86 6.8
2018 04 08 19:00 262.2 0.0 0.00 40.9 4.9 47.85 7.3
2018 04 08 20:00 262.2 0.0 0.00 40.2 4.6 50.58 4.1
2018 04 08 21:00 262.7 0.0 0.00 39.2 4.0 55.59 1.0
2018 04 08 22:00 262.9 0.0 0.00 39.0 3.9 59.44 1.5
2018 04 08 23:00 263.4 0.0 0.00 37.7 3.2 62.7 3.2
2018 04 08 24:00 264.6 0.0 0.00 35.1 1.7 67 4.2
2018 04 09 1:00 265.3 0.0 0.00 33.1 0.6 69.25 3.1
2018 04 09 2:00 265.3 0.0 0.00 32.9 0.5 66.87 1.3
2018 04 09 3:00 267.0 0.0 0.00 31.2 -0.5 73.03 2.1
2018 04 09 4:00 267.2 0.0 0.00 30.7 -0.7 74.9 2.0
2018 04 09 5:00 267.3 0.0 0.00 29.4 -1.4 82.6 1.1
2018 04 09 6:00 267.4 0.0 0.00 30.4 -0.9 83.8 0.2
2018 04 09 7:00 266.8 0.0 0.00 33.3 0.7 84.4 1.6
2018 04 09 8:00 264.1 0.0 0.00 39.8 4.3 72.51 4.2
2018 04 09 9:00 262.3 0.0 0.00 46.0 7.8 61.65 8.5
2018 04 09 10:00 261.8 0.0 0.00 48.8 9.3 58.23 8.4
2018 04 09 11:00 259.9 0.0 0.00 52.8 11.6 44.02 8.5
2018 04 09 12:00 258.5 0.0 0.00 54.2 12.3 40.51 9.5
2018 04 09 13:00 257.7 0.0 0.00 54.7 12.6 41.95 10.3
2018 04 09 14:00 257.5 0.0 0.00 54.5 12.5 45.03 9.6
2018 04 09 15:00 258.5 0.0 0.00 52.6 11.4 47.75 9.2
2018 04 09 16:00 259.1 0.0 0.00 51.2 10.6 50.98 8.3
2018 04 09 17:00 259.3 0.0 0.00 50.5 10.3 53.79 7.7
2018 04 09 18:00 259.8 0.0 0.00 48.5 9.1 58.26 6.7
2018 04 09 19:00 260.4 0.0 0.00 46.0 7.8 62.92 7.8
2018 04 09 20:00 261.4 0.0 0.00 42.1 5.6 70.61 8.0
2018 04 09 21:00 262.7 0.0 0.00 38.9 3.8 76.92 5.3
2018 04 09 22:00 263.4 0.0 0.00 37.0 2.8 79.88 5.0
2018 04 09 23:00 264.9 0.0 0.00 35.3 1.8 82.6 3.5
2018 04 09 24:00 239.4 0.0 0.00 34.4 1.3 84.5 0.4
2018 04 10 1:00 223.8 0.0 0.00 31.7 -0.1 95.7 0.1
2018 04 10 2:00 247.9 0.0 0.00 30.5 -0.8 99.3 1.4
2018 04 10 3:00 259.0 0.0 0.00 29.1 -1.6 99.9 0.3
2018 04 10 4:00 269.6 0.0 0.00 27.8 -2.3 99.9 0.4
2018 04 10 5:00 271.3 0.0 0.00 27.1 -2.7 99.9 0.6
2018 04 10 6:00 272.9 0.0 0.00 26.0 -3.3 99.9 0.1
2018 04 10 7:00 267.0 0.0 0.00 25.8 -3.4 99.9 0.6
2018 04 10 8:00 283.3 0.0 0.00 32.7 0.4 99.4 2.2
2018 04 10 9:00 267.6 0.0 0.00 39.3 4.1 74.68 3.8
2018 04 10 10:00 261.5 0.0 0.00 42.8 6.0 60.73 4.0
2018 04 10 11:00 260.8 0.0 0.00 44.9 7.2 56.4 4.2
2018 04 10 12:00 259.6 0.0 0.00 47.8 8.8 52.14 3.6
2018 04 10 13:00 259.3 0.0 0.00 50.8 10.4 48.77 4.2
2018 04 10 14:00 259.2 0.0 0.00 53.0 11.6 48.03 3.8
2018 04 10 15:00 258.6 0.0 0.00 54.9 12.7 45.13 3.4
2018 04 10 16:00 258.5 0.0 0.00 56.7 13.7 42.02 3.9
2018 04 10 17:00 259.3 0.0 0.00 58.0 14.4 42.05 5.9
2018 04 10 18:00 260.0 0.0 0.00 57.3 14.1 43.23 7.7
2018 04 10 19:00 261.4 0.0 0.00 54.0 12.2 50.77 4.5
2018 04 10 20:00 263.5 0.0 0.00 50.6 10.3 54.96 2.9
2018 04 10 21:00 263.7 0.0 0.00 48.6 9.2 58.51 4.6
2018 04 10 22:00 263.7 0.0 0.00 47.9 8.9 59.81 6.5
2018 04 10 23:00 263.0 0.0 0.00 50.0 10.0 55.4 6.6
2018 04 10 24:00 262.8 0.0 0.00 50.0 10.0 54.85 6.2
2018 04 11 1:00 263.0 0.0 0.00 48.8 9.3 56.11 5.4
2018 04 11 2:00 263.4 0.0 0.00 47.7 8.7 56.19 4.6
2018 04 11 3:00 263.2 0.0 0.00 48.3 9.0 54.77 4.1
2018 04 11 4:00 262.6 0.0 0.00 49.9 9.9 51.85 5.1
2018 04 11 5:00 262.4 0.0 0.00 50.0 10.0 51.82 4.2
2018 04 11 6:00 262.9 0.0 0.00 48.7 9.3 54.31 3.1
2018 04 11 7:00 262.3 0.0 0.00 50.5 10.3 53.21 5.9
2018 04 11 8:00 261.5 0.0 0.00 54.5 12.5 47.62 10.0
2018 04 11 9:00 260.3 0.0 0.00 59.3 15.2 39.3 17.9
2018 04 11 10:00 259.6 0.0 0.00 62.7 17.1 34.48 20.4
2018 04 11 11:00 259.2 0.0 0.00 64.8 18.3 34.77 19.6
2018 04 11 12:00 258.9 0.0 0.00 67.1 19.5 34.35 17.3
2018 04 11 13:00 258.4 0.0 0.00 70.2 21.2 32.59 17.7
2018 04 11 14:00 258.3 0.0 0.00 72.3 22.4 31.4 17.0
2018 04 11 15:00 258.1 0.0 0.00 73.0 22.8 29.44 16.8
2018 04 11 16:00 257.9 0.0 0.00 72.8 22.7 28.3 16.3
2018 04 11 17:00 258.2 0.0 0.00 71.9 22.2 27.8 14.8
2018 04 11 18:00 258.5 0.0 0.00 69.3 20.7 31.18 10.4
2018 04 11 19:00 259.1 0.0 0.00 66.3 19.0 34.57 7.5
2018 04 11 20:00 259.7 0.0 0.00 63.2 17.3 38.18 5.3
2018 04 11 21:00 260.3 0.0 0.00 60.6 15.9 41.85 4.5
2018 04 11 22:00 260.6 0.0 0.00 59.3 15.1 43.68 4.5
2018 04 11 23:00 260.6 0.0 0.00 58.5 14.7 44.49 5.7
2018 04 11 24:00 260.1 0.0 0.00 60.7 15.9 40.21 7.8
2018 04 12 1:00 260.0 0.0 0.00 60.6 15.9 40.81 9.1
2018 04 12 2:00 260.3 0.0 0.00 60.3 15.7 42.89 8.9
2018 04 12 3:00 260.6 0.0 0.00 60.4 15.8 46.01 10.7
2018 04 12 4:00 260.6 0.0 0.00 60.4 15.8 50.2 11.9
2018 04 12 5:00 260.7 0.0 0.00 60.4 15.8 53.73 13.6
2018 04 12 6:00 261.2 0.0 0.00 60.7 15.9 56.39 14.9
2018 04 12 7:00 260.8 0.0 0.00 61.6 16.4 58.22 12.9
2018 04 12 8:00 260.0 0.0 0.00 64.7 18.2 54.75 12.5
2018 04 12 9:00 259.7 0.0 0.00 67.9 20.0 51.18 14.8
2018 04 12 10:00 259.7 0.0 0.00 70.9 21.6 47.87 14.8
2018 04 12 11:00 259.6 0.0 0.00 73.7 23.1 44.98 15.7
2018 04 12 12:00 259.0 0.0 0.00 76.0 24.4 42.91 15.3
2018 04 12 13:00 258.5 0.0 0.00 78.0 25.6 39.71 16.6
2018 04 12 14:00 258.2 0.0 0.00 79.8 26.5 38.11 17.6
2018 04 12 15:00 258.2 0.0 0.00 80.6 27.0 38.08 18.3
2018 04 12 16:00 258.2 0.0 0.00 80.5 26.9 37.29 18.6
2018 04 12 17:00 258.2 0.0 0.00 78.9 26.1 39.39 18.2
2018 04 12 18:00 258.8 0.0 0.00 76.9 24.9 43.04 14.8
2018 04 12 19:00 259.6 0.0 0.00 73.5 23.1 48.88 11.2
2018 04 12 20:00 260.2 0.0 0.00 71.5 22.0 51.74 12.6
2018 04 12 21:00 260.4 0.0 0.00 70.3 21.3 53.88 14.5
2018 04 12 22:00 260.5 0.0 0.00 69.0 20.5 56.65 13.9
2018 04 12 23:00 261.1 0.0 0.00 68.0 20.0 59.19 14.0
2018 04 12 24:00 261.3 0.0 0.00 67.6 19.8 60.94 13.3
2018 04 13 1:00 261.8 0.0 0.00 67.1 19.5 62.66 13.0
2018 04 13 2:00 261.8 0.0 0.00 67.0 19.4 62.68 15.1
2018 04 13 3:00 261.8 0.0 0.00 66.6 19.2 63.39 15.6
2018 04 13 4:00 261.8 0.0 0.00 66.1 19.0 63.89 16.4
2018 04 13 5:00 261.8 0.0 0.00 65.1 18.4 65.39 16.2
2018 04 13 6:00 262.1 0.0 0.00 64.0 17.8 68.68 15.8
2018 04 13 7:00 262.3 0.0 0.00 64.3 18.0 71.16 18.2
2018 04 13 8:00 261.8 0.0 0.00 66.1 19.0 69.83 21.4
2018 04 13 9:00 261.8 0.0 0.00 66.8 19.4 71.41 19.1
2018 04 13 10:00 261.7 0.0 0.00 68.7 20.4 70.02 19.4
2018 04 13 11:00 261.7 0.0 0.00 69.5 20.8 69.13 18.0
2018 04 13 12:00 261.5 0.0 0.00 71.9 22.1 64.46 21.3
2018 04 13 13:00 261.6 0.0 0.00 72.3 22.4 63.53 17.8
2018 04 13 14:00 261.1 0.0 0.00 72.8 22.7 63.67 18.1
2018 04 13 15:00 261.6 0.0 0.00 71.7 22.0 66.62 15.4
2018 04 13 16:00 264.0 0.0 0.00 66.7 19.3 81.9 15.0
2018 04 13 17:00 199.9 0.0 0.51 65.5 18.6 91.9 8.8
2018 04 13 18:00 249.3 0.0 0.25 65.1 18.4 95.6 8.1
2018 04 13 19:00 262.7 0.0 0.00 64.4 18.0 93.2 10.6
2018 04 13 20:00 254.4 0.0 0.00 64.3 17.9 95.7 7.9
2018 04 13 21:00 260.9 0.0 0.00 63.8 17.7 92.2 6.6
2018 04 13 22:00 265.2 0.0 0.00 63.5 17.5 86 8.0
2018 04 13 23:00 267.1 0.0 0.00 63.6 17.5 80.8 10.3
2018 04 13 24:00 266.1 0.0 0.00 60.2 15.7 73.94 7.3
2018 04 14 1:00 264.6 0.0 0.00 57.7 14.3 64.57 9.4
2018 04 14 2:00 263.3 0.0 0.00 55.6 13.1 56.73 9.6
2018 04 14 3:00 264.1 0.0 0.00 52.5 11.4 68.97 9.2
2018 04 14 4:00 264.7 0.0 0.00 48.4 9.1 74.87 14.4
2018 04 14 5:00 265.4 0.0 0.00 43.3 6.3 75.86 14.0
2018 04 14 6:00 265.8 0.0 0.00 38.6 3.7 76.76 13.8
2018 04 14 7:00 264.5 0.0 0.00 37.8 3.2 71.06 13.3
2018 04 14 8:00 263.8 0.0 0.00 38.7 3.7 68.16 14.1
2018 04 14 9:00 263.0 0.0 0.00 39.5 4.2 62.24 17.8
2018 04 14 10:00 262.8 0.0 0.00 38.7 3.7 61 18.1
2018 04 14 11:00 262.7 0.0 0.00 38.5 3.6 60.89 17.8
2018 04 14 12:00 262.8 0.0 0.00 37.9 3.3 60.89 16.6
2018 04 14 13:00 262.6 0.0 0.00 38.3 3.5 58.76 17.5
2018 04 14 14:00 262.2 0.0 0.00 39.6 4.2 55.27 17.4
2018 04 14 15:00 262.2 0.0 0.00 39.8 4.3 54.53 16.0
2018 04 14 16:00 262.2 0.0 0.00 40.5 4.7 54.75 15.4
2018 04 14 17:00 262.7 0.0 0.00 39.6 4.2 57.8 16.1
2018 04 14 18:00 262.8 0.0 0.00 39.2 4.0 59.15 18.2
2018 04 14 19:00 262.9 0.0 0.00 38.0 3.3 62.82 17.4
2018 04 14 20:00 263.6 0.0 0.00 36.6 2.5 68.98 16.3
2018 04 14 21:00 264.2 0.0 0.00 35.7 2.0 74.18 13.1
2018 04 14 22:00 263.7 0.0 0.00 35.1 1.7 71.02 14.7
2018 04 14 23:00 264.3 0.0 0.00 33.8 1.0 73.18 14.0
2018 04 14 24:00 264.3 0.0 0.00 32.8 0.4 72.19 13.2
2018 04 15 1:00 264.3 0.0 0.00 32.1 0.0 72.73 11.7
2018 04 15 2:00 264.3 0.0 0.00 31.3 -0.4 71.86 13.5
2018 04 15 3:00 264.3 0.0 0.00 30.4 -0.9 72.29 14.0
2018 04 15 4:00 264.3 0.0 0.00 29.8 -1.2 73.92 14.6
2018 04 15 5:00 266.6 0.0 0.00 28.6 -1.9 84.8 13.5
2018 04 15 6:00 265.7 0.0 0.00 28.6 -1.9 80.2 14.1
2018 04 15 7:00 266.7 0.0 0.00 27.8 -2.3 86.3 14.5
2018 04 15 8:00 266.7 0.0 0.00 27.9 -2.3 89.5 14.3
2018 04 15 9:00 265.4 0.0 0.00 28.6 -1.9 82.2 16.1
2018 04 15 10:00 264.6 0.0 0.00 29.4 -1.4 74.98 16.4
2018 04 15 11:00 263.6 0.0 0.00 30.6 -0.8 68.06 16.4
2018 04 15 12:00 262.9 0.0 0.00 31.1 -0.5 63.58 16.5
2018 04 15 13:00 262.3 0.0 0.00 32.1 0.1 59.32 17.1
2018 04 15 14:00 261.8 0.0 0.00 34.6 1.4 52.66 17.7
2018 04 15 15:00 261.7 0.0 0.00 34.9 1.6 50.69 17.6
2018 04 15 16:00 261.5 0.0 0.00 34.9 1.6 50.08 16.1
2018 04 15 17:00 261.6 0.0 0.00 34.4 1.3 50.86 14.8
2018 04 15 18:00 261.9 0.0 0.00 33.9 1.1 52.39 12.9
2018 04 15 19:00 261.8 0.0 0.00 33.2 0.7 53.45 12.7
2018 04 15 20:00 261.4 0.0 0.00 32.3 0.2 56.03 10.4
2018 04 15 21:00 261.3 0.0 0.00 31.6 -0.2 57.63 10.7
2018 04 15 22:00 261.4 0.0 0.00 31.3 -0.4 57.96 12.5
2018 04 15 23:00 261.8 0.0 0.00 31.1 -0.5 59.7 10.9
2018 04 15 24:00 262.3 0.0 0.00 30.9 -0.6 61 9.8
2018 04 16 1:00 262.4 0.0 0.00 30.8 -0.7 62.45 9.4
2018 04 16 2:00 261.9 0.0 0.00 30.8 -0.7 61.77 11.8
2018 04 16 3:00 261.6 0.0 0.00 30.2 -1.0 59.96 11.9
2018 04 16 4:00 261.5 0.0 0.00 29.8 -1.2 62.95 9.6
2018 04 16 5:00 262.5 0.0 0.00 29.7 -1.3 65.17 8.0
2018 04 16 6:00 262.5 0.0 0.00 30.0 -1.1 66.66 7.9
2018 04 16 7:00 261.7 0.0 0.00 30.2 -1.0 67.06 10.0
2018 04 16 8:00 261.3 0.0 0.00 30.8 -0.6 63.73 11.3
2018 04 16 9:00 260.2 0.0 0.00 33.5 0.9 59.36 11.6
2018 04 16 10:00 261.0 0.0 0.00 35.6 2.0 56.13 9.7
2018 04 16 11:00 260.8 0.0 0.00 38.5 3.6 52.54 9.0
2018 04 16 12:00 260.5 0.0 0.00 41.4 5.2 49.07 8.8
2018 04 16 13:00 260.2 0.0 0.00 44.8 7.1 46.04 8.4
2018 04 16 14:00 259.4 0.0 0.00 47.9 8.9 43.15 5.9
2018 04 16 15:00 258.9 0.0 0.00 50.7 10.4 38.68 4.6
2018 04 16 16:00 257.4 0.0 0.00 53.7 12.0 34.17 3.4
2018 04 16 17:00 257.3 0.0 0.00 54.7 12.6 32.11 2.1
2018 04 16 18:00 257.9 0.0 0.00 54.2 12.4 34.71 2.2
2018 04 16 19:00 259.8 0.0 0.00 52.1 11.2 37.91 1.6
2018 04 16 20:00 262.1 0.0 0.00 48.9 9.4 42.47 0.5
2018 04 16 21:00 263.4 0.0 0.00 44.4 6.9 53.66 0.3
2018 04 16 22:00 263.6 0.0 0.00 41.2 5.1 64.65 1.2
2018 04 16 23:00 264.5 0.0 0.00 38.8 3.8 70.05 1.1
2018 04 16 24:00 264.8 0.0 0.00 37.8 3.2 71.67 3.1
2018 04 17 1:00 265.0 0.0 0.00 37.5 3.1 72.56 2.9
2018 04 17 2:00 264.9 0.0 0.00 37.0 2.8 72.82 2.5
2018 04 17 3:00 264.6 0.0 0.00 37.4 3.0 70.22 3.1
2018 04 17 4:00 263.9 0.0 0.00 38.7 3.7 66.48 5.0
2018 04 17 5:00 262.5 0.0 0.00 41.3 5.2 59.04 8.0
2018 04 17 6:00 262.3 0.0 0.00 42.6 5.9 54.45 9.5
2018 04 17 7:00 261.0 0.0 0.00 44.6 7.0 51.11 10.4
2018 04 17 8:00 259.6 0.0 0.00 48.8 9.3 47.16 10.5
2018 04 17 9:00 258.8 0.0 0.00 53.5 11.9 46.89 10.0
2018 04 17 10:00 260.1 0.0 0.00 60.8 16.0 47.17 9.0
2018 04 17 11:00 260.4 0.0 0.00 66.7 19.3 46.92 9.8
2018 04 17 12:00 259.4 0.0 0.00 72.8 22.7 42.36 10.3
2018 04 17 13:00 258.6 0.0 0.00 75.1 23.9 39.12 10.6
2018 04 17 14:00 258.3 0.0 0.00 75.9 24.4 38.19 10.8
2018 04 17 15:00 258.3 0.0 0.00 76.4 24.7 37.47 11.1
2018 04 17 16:00 258.7 0.0 0.00 75.6 24.2 39.33 9.8
2018 04 17 17:00 259.0 0.0 0.00 76.5 24.7 40.87 9.4
2018 04 17 18:00 259.3 0.0 0.00 75.1 23.9 43.62 8.3
2018 04 17 19:00 260.1 0.0 0.00 71.9 22.2 49.66 6.3
2018 04 17 20:00 260.6 0.0 0.00 69.5 20.9 53.73 5.6
2018 04 17 21:00 261.0 0.0 0.00 69.2 20.6 53.63 6.6
2018 04 17 22:00 260.8 0.0 0.00 69.3 20.7 52.98 8.5
2018 04 17 23:00 261.1 0.0 0.00 67.5 19.7 55.79 9.7
2018 04 17 24:00 260.9 0.0 0.00 67.7 19.8 52.94 13.1
2018 04 18 1:00 260.7 0.0 0.00 67.4 19.7 52.83 16.5
2018 04 18 2:00 261.1 0.0 0.00 67.2 19.6 54.6 16.9
2018 04 18 3:00 261.1 0.0 0.00 67.3 19.6 56.12 20.1
2018 04 18 4:00 261.2 0.0 0.00 67.1 19.5 59.17 19.5
2018 04 18 5:00 260.7 0.0 0.00 63.6 17.6 50.06 17.5
2018 04 18 6:00 261.1 0.0 0.00 57.0 13.9 50.78 14.7
2018 04 18 7:00 260.6 0.0 0.00 54.8 12.7 52.37 14.2
2018 04 18 8:00 259.9 0.0 0.00 54.8 12.7 49.92 18.1
2018 04 18 9:00 259.9 0.0 0.00 54.7 12.6 49.41 20.0
2018 04 18 10:00 260.4 0.0 0.00 55.3 12.9 49.35 19.4
2018 04 18 11:00 260.4 0.0 0.00 56.0 13.3 49.82 18.3
2018 04 18 12:00 260.0 0.0 0.00 56.4 13.6 48.75 18.2
2018 04 18 13:00 259.7 0.0 0.00 57.5 14.2 46.28 16.9
2018 04 18 14:00 259.4 0.0 0.00 59.0 15.0 42.43 18.2
2018 04 18 15:00 259.0 0.0 0.00 59.2 15.1 37.53 19.4
2018 04 18 16:00 258.8 0.0 0.00 58.5 14.7 35.86 17.9
2018 04 18 17:00 258.9 0.0 0.00 57.1 13.9 36.05 17.6
2018 04 18 18:00 259.4 0.0 0.00 52.6 11.4 41.57 17.3
2018 04 18 19:00 260.1 0.0 0.00 48.4 9.1 43.81 14.8
2018 04 18 20:00 260.7 0.0 0.00 45.2 7.4 49.18 8.7
2018 04 18 21:00 261.9 0.0 0.00 41.8 5.4 57.61 3.2
2018 04 18 22:00 262.2 0.0 0.00 39.8 4.3 59.41 3.6
2018 04 18 23:00 262.3 0.0 0.00 39.3 4.0 61.04 6.1
2018 04 18 24:00 262.1 0.0 0.00 40.0 4.4 59.73 10.1
2018 04 19 1:00 262.3 0.0 0.00 37.6 3.1 59.97 8.1
2018 04 19 2:00 262.3 0.0 0.00 35.4 1.9 60.71 5.5
2018 04 19 3:00 263.0 0.0 0.00 33.6 0.9 64.79 4.3
2018 04 19 4:00 263.4 0.0 0.00 32.5 0.3 69.27 4.8
2018 04 19 5:00 263.2 0.0 0.00 33.3 0.7 70.42 5.4
2018 04 19 6:00 263.0 0.0 0.00 34.8 1.6 69.7 5.7
2018 04 19 7:00 262.5 0.0 0.00 35.3 1.8 71.15 6.3
2018 04 19 8:00 261.4 0.0 0.00 38.7 3.7 65.71 8.7
2018 04 19 9:00 261.0 0.0 0.00 40.9 4.9 60.04 10.4
2018 04 19 10:00 260.8 0.0 0.00 43.2 6.2 51.48 9.9
2018 04 19 11:00 260.4 0.0 0.00 45.4 7.4 47.81 9.0
2018 04 19 12:00 259.6 0.0 0.00 47.2 8.4 46.49 8.1
2018 04 19 13:00 259.4 0.0 0.00 48.8 9.3 45.29 8.0
2018 04 19 14:00 259.1 0.0 0.00 50.9 10.5 43.75 7.9
2018 04 19 15:00 258.8 0.0 0.00 52.1 11.2 42.42 8.3
2018 04 19 16:00 258.8 0.0 0.00 53.2 11.8 40.94 7.6
2018 04 19 17:00 258.9 0.0 0.00 53.8 12.1 40.74 8.3
2018 04 19 18:00 259.3 0.0 0.00 52.7 11.5 40.54 8.2
2018 04 19 19:00 260.3 0.0 0.00 50.6 10.3 43.61 5.4
2018 04 19 20:00 261.3 0.0 0.00 47.5 8.6 48.2 4.6
2018 04 19 21:00 261.9 0.0 0.00 44.7 7.0 53.19 3.7
2018 04 19 22:00 262.5 0.0 0.00 43.6 6.4 55.65 1.3
2018 04 19 23:00 263.7 0.0 0.00 41.4 5.2 60.66 0.3
2018 04 19 24:00 265.5 0.0 0.00 37.7 3.1 71.71 0.0
2018 04 20 1:00 263.1 0.0 0.00 34.5 1.4 79.96 1.8
2018 04 20 2:00 261.7 0.0 0.00 34.1 1.1 81.2 2.4
2018 04 20 3:00 265.2 0.0 0.00 36.5 2.5 71.8 2.9
2018 04 20 4:00 265.8 0.0 0.00 36.4 2.5 71.14 0.9
2018 04 20 5:00 265.4 0.0 0.00 35.5 1.9 73.38 1.8
2018 04 20 6:00 264.5 0.0 0.00 34.2 1.2 77.33 0.0
2018 04 20 7:00 262.6 0.0 0.00 37.5 3.1 72.98 0.0
2018 04 20 8:00 261.3 0.0 0.00 42.2 5.7 67.08 4.2
2018 04 20 9:00 260.8 0.0 0.00 48.5 9.2 50.82 12.6
2018 04 20 10:00 260.6 0.0 0.00 51.7 11.0 44.01 14.2
2018 04 20 11:00 260.0 0.0 0.00 54.2 12.3 37.25 13.6
2018 04 20 12:00 259.1 0.0 0.00 56.9 13.8 34.51 11.5
2018 04 20 13:00 258.6 0.0 0.00 59.1 15.0 31.01 11.1
2018 04 20 14:00 258.3 0.0 0.00 60.6 15.9 28.85 11.0
2018 04 20 15:00 257.8 0.0 0.00 62.3 16.8 27.78 11.2
2018 04 20 16:00 257.8 0.0 0.00 62.6 17.0 24.86 12.6
2018 04 20 17:00 257.7 0.0 0.00 62.6 17.0 23.34 12.3
2018 04 20 18:00 258.1 0.0 0.00 61.1 16.2 23.59 10.4
2018 04 20 19:00 258.8 0.0 0.00 57.3 14.0 26.94 6.7
2018 04 20 20:00 259.6 0.0 0.00 54.0 12.2 30.46 5.4
2018 04 20 21:00 259.2 0.0 0.00 54.2 12.3 26.48 8.0
2018 04 20 22:00 258.6 0.0 0.00 54.8 12.7 22.44 8.9
2018 04 20 23:00 258.6 0.0 0.00 54.0 12.2 22.62 12.4
2018 04 20 24:00 258.8 0.0 0.00 53.3 11.8 25.94 11.2
2018 04 21 1:00 259.3 0.0 0.00 52.0 11.1 31.14 7.7
2018 04 21 2:00 259.3 0.0 0.00 51.4 10.8 34.17 5.5
2018 04 21 3:00 260.2 0.0 0.00 50.2 10.1 37.23 1.1
2018 04 21 4:00 260.5 0.0 0.00 48.7 9.3 43.11 4.1
2018 04 21 5:00 260.2 0.0 0.00 48.7 9.3 43.37 6.6
2018 04 21 6:00 260.0 0.0 0.00 49.0 9.4 42.49 9.0
2018 04 21 7:00 263.5 0.0 0.25 48.1 9.0 49.92 9.0
2018 04 21 8:00 261.1 0.0 0.00 48.4 9.1 54.92 5.9
2018 04 21 9:00 260.7 0.0 0.00 50.9 10.5 50.47 10.5
2018 04 21 10:00 259.8 0.0 0.00 54.3 12.4 46.37 9.5
2018 04 21 11:00 259.4 0.0 0.00 56.4 13.6 45.64 9.3
2018 04 21 12:00 258.9 0.0 0.00 60.2 15.7 43.22 8.1
2018 04 21 13:00 258.6 0.0 0.00 63.3 17.4 37.87 12.3
2018 04 21 14:00 258.4 0.0 0.00 64.4 18.0 36.79 11.8
2018 04 21 15:00 259.0 0.0 0.00 63.0 17.2 39.41 6.7
2018 04 21 16:00 259.8 0.0 0.00 61.6 16.5 41.68 6.9
2018 04 21 17:00 266.1 0.0 0.51 60.5 15.8 45.27 6.9
2018 04 21 18:00 Wet 298.6 0.0 1.02 56.1 13.4 68.43 2.1
2018 04 21 19:00 Wet 377.6 0.1 2.03 52.8 11.5 84.3 2.1
2018 04 21 20:00 Wet 310.1 0.0 0.25 52.8 11.5 81.5 2.4
2018 04 21 21:00 Wet 289.1 0.0 0.00 52.0 11.1 87.3 0.9
2018 04 21 22:00 Wet 306.1 0.0 0.51 52.0 11.1 84.5 2.7
2018 04 21 23:00 272.1 0.0 0.00 52.5 11.4 80.3 3.4
2018 04 21 24:00 264.7 0.0 0.00 53.0 11.7 78.21 4.3
2018 04 22 1:00 Wet 346.4 0.0 1.02 51.9 11.0 84.1 1.8
2018 04 22 2:00 Wet 419.8 0.1 1.52 50.4 10.2 96.7 1.8
2018 04 22 3:00 Wet 288.0 0.0 0.25 50.2 10.1 97.3 4.1
2018 04 22 4:00 Wet 354.1 0.0 0.00 49.2 9.6 99.9 5.1
2018 04 22 5:00 Wet 388.3 0.1 1.27 48.6 9.2 99.9 3.7
2018 04 22 6:00 Wet 470.3 0.2 4.32 48.0 8.9 99.9 3.7
2018 04 22 7:00 Wet 405.3 0.0 0.76 48.6 9.2 99.9 3.1
2018 04 22 8:00 Wet 361.6 0.0 0.25 50.9 10.5 99.9 4.9
2018 04 22 9:00 Wet 361.5 0.0 0.25 52.8 11.6 99.9 7.3
2018 04 22 10:00 Wet 394.2 0.0 0.76 53.4 11.9 99.9 6.9
2018 04 22 11:00 Wet 403.6 0.1 1.27 52.7 11.5 99.9 7.1
2018 04 22 12:00 278.7 0.0 0.00 53.2 11.8 99.9 5.7
2018 04 22 13:00 263.8 0.0 0.00 56.5 13.6 90.8 8.3
2018 04 22 14:00 262.1 0.0 0.00 58.3 14.6 79.13 9.1
2018 04 22 15:00 261.9 0.0 0.00 58.9 14.9 75.5 10.0
2018 04 22 16:00 262.0 0.0 0.00 57.2 14.0 79.91 13.0
2018 04 22 17:00 262.4 0.0 0.00 56.4 13.6 80.6 10.5
2018 04 22 18:00 264.3 0.0 0.00 55.3 13.0 84.4 10.6
2018 04 22 19:00 277.2 0.0 0.00 54.3 12.4 87.4 9.9
2018 04 22 20:00 Wet 310.0 0.0 0.00 52.7 11.5 89.8 10.8
2018 04 22 21:00 Wet 343.2 0.0 0.00 50.9 10.5 99.9 8.2
2018 04 22 22:00 270.3 0.0 0.00 50.9 10.5 94.7 8.3
2018 04 22 23:00 265.2 0.0 0.00 49.7 9.8 97.8 10.1
2018 04 22 24:00 Wet 288.7 0.0 0.00 49.0 9.4 99.9 9.0
2018 04 23 1:00 265.7 0.0 0.00 48.5 9.2 99.9 7.0
2018 04 23 2:00 265.4 0.0 0.00 48.6 9.2 99.9 4.3
2018 04 23 3:00 265.4 0.0 0.00 49.2 9.6 99.9 4.9
2018 04 23 4:00 265.4 0.0 0.00 50.2 10.1 99.9 6.1
2018 04 23 5:00 Wet 335.8 0.0 0.00 50.4 10.2 99.6 7.9
2018 04 23 6:00 Wet 286.2 0.0 0.00 50.6 10.4 99.9 7.7
2018 04 23 7:00 265.0 0.0 0.00 51.9 11.1 93.8 8.2
2018 04 23 8:00 263.8 0.0 0.00 52.8 11.6 80.4 10.2
2018 04 23 9:00 263.0 0.0 0.00 54.3 12.4 77.4 6.7
2018 04 23 10:00 261.9 0.0 0.00 57.4 14.1 69.31 9.0
2018 04 23 11:00 261.5 0.0 0.00 60.8 16.0 59.58 10.1
2018 04 23 12:00 259.7 0.0 0.00 64.1 17.8 45.03 11.1
2018 04 23 13:00 258.9 0.0 0.00 65.7 18.7 40.11 11.8
2018 04 23 14:00 258.6 0.0 0.00 67.2 19.5 39.3 12.8
2018 04 23 15:00 258.3 0.0 0.00 67.6 19.8 36.72 12.3
2018 04 23 16:00 258.8 0.0 0.00 66.5 19.1 39.82 10.3
2018 04 23 17:00 259.0 0.0 0.00 65.8 18.8 42.46 8.4
2018 04 23 18:00 259.1 0.0 0.00 65.0 18.4 42.74 8.2
2018 04 23 19:00 259.8 0.0 0.00 63.1 17.3 44.99 5.2
2018 04 23 20:00 260.4 0.0 0.00 61.4 16.4 47.4 0.9
2018 04 23 21:00 261.0 0.0 0.00 58.9 14.9 51.45 0.9
2018 04 23 22:00 261.9 0.0 0.00 55.7 13.2 55.89 1.3
2018 04 23 23:00 264.6 0.0 0.00 50.5 10.3 73.35 2.5
2018 04 23 24:00 265.8 0.0 0.00 47.9 8.9 78.34 3.3
2018 04 24 1:00 267.2 0.0 0.00 46.4 8.0 80.8 0.2
2018 04 24 2:00 269.2 0.0 0.00 43.6 6.4 87.2 3.2
2018 04 24 3:00 270.8 0.0 0.00 42.7 6.0 87.9 2.1
2018 04 24 4:00 273.3 0.0 0.00 42.6 5.9 86.9 0.3
2018 04 24 5:00 271.5 0.0 0.00 42.9 6.0 82.4 1.7
2018 04 24 6:00 268.1 0.0 0.00 42.8 6.0 81.2 1.2
2018 04 24 7:00 262.5 0.0 0.00 46.0 7.8 79.64 0.3
2018 04 24 8:00 260.9 0.0 0.00 52.5 11.4 64.13 3.1
2018 04 24 9:00 260.1 0.0 0.00 59.2 15.1 53.61 4.1
2018 04 24 10:00 259.9 0.0 0.00 65.5 18.6 42.08 6.4
2018 04 24 11:00 259.1 0.0 0.00 67.5 19.7 34.83 9.1
2018 04 24 12:00 258.0 0.0 0.00 68.9 20.5 31.85 9.7
2018 04 24 13:00 257.6 0.0 0.00 69.8 21.0 32.49 8.4
2018 04 24 14:00 257.2 0.0 0.00 71.0 21.7 30.62 8.1
2018 04 24 15:00 256.9 0.0 0.00 71.7 22.1 29.65 7.9
2018 04 24 16:00 257.0 0.0 0.00 72.2 22.3 30.46 7.8
2018 04 24 17:00 257.1 0.0 0.00 71.9 22.1 29.3 8.2
2018 04 24 18:00 257.5 0.0 0.00 70.7 21.5 28.99 7.4
2018 04 24 19:00 258.2 0.0 0.00 67.3 19.6 31.39 4.7
2018 04 24 20:00 258.7 0.0 0.00 65.1 18.4 34.21 2.3
2018 04 24 21:00 260.6 0.0 0.00 61.8 16.6 45.03 1.0
2018 04 24 22:00 262.6 0.0 0.00 57.0 13.9 56.52 3.0
2018 04 24 23:00 263.5 0.0 0.00 52.3 11.3 70.41 2.3
2018 04 24 24:00 264.1 0.0 0.00 51.3 10.7 68.43 0.5
2018 04 25 1:00 262.9 0.0 0.00 52.4 11.3 65.81 3.3
2018 04 25 2:00 263.9 0.0 0.00 50.1 10.1 74.55 2.7
2018 04 25 3:00 264.7 0.0 0.00 49.7 9.8 79.59 1.5
2018 04 25 4:00 265.4 0.0 0.00 48.3 9.1 84.5 1.7
2018 04 25 5:00 263.5 0.0 0.00 51.5 10.8 77.81 4.8
2018 04 25 6:00 266.4 0.0 0.00 52.4 11.3 79.06 7.2
2018 04 25 7:00 Wet 294.0 0.0 0.25 51.4 10.8 88.1 8.3
2018 04 25 8:00 Wet 392.8 0.1 2.54 50.6 10.3 99.9 5.5
2018 04 25 9:00 Wet 354.8 0.1 3.05 50.5 10.3 99.9 3.5
2018 04 25 10:00 Wet 364.3 0.0 0.76 51.1 10.6 99.9 2.7
2018 04 25 11:00 Wet 301.4 0.0 0.00 52.5 11.4 99.9 3.9
2018 04 25 12:00 280.4 0.0 0.51 53.8 12.1 99.9 2.9
2018 04 25 13:00 267.4 0.0 0.25 54.2 12.4 96 3.4
2018 04 25 14:00 265.4 0.0 0.25 54.0 12.3 97.4 4.9
2018 04 25 15:00 Wet 291.2 0.1 2.54 52.9 11.6 98.4 3.1
2018 04 25 16:00 Wet 348.1 0.1 1.52 52.5 11.4 99.9 3.8
2018 04 25 17:00 Wet 300.8 0.0 0.25 52.0 11.1 99.9 3.8
2018 04 25 18:00 Wet 338.7 0.0 0.51 51.3 10.7 99.9 2.0
2018 04 25 19:00 Wet 374.3 0.0 0.51 50.5 10.3 99.9 1.0
2018 04 25 20:00 Wet 382.0 0.0 1.02 50.4 10.2 99.9 1.4
2018 04 25 21:00 Wet 408.4 0.1 1.27 50.1 10.1 99.9 2.1
2018 04 25 22:00 Wet 435.0 0.1 1.52 50.0 10.0 99.9 3.2
2018 04 25 23:00 Wet 368.9 0.0 0.25 49.2 9.6 99.9 5.3
2018 04 25 24:00 Wet 291.6 0.0 0.00 48.8 9.3 99.9 4.9
2018 04 26 1:00 277.6 0.0 0.00 48.5 9.2 99.9 4.8
2018 04 26 2:00 273.1 0.0 0.00 48.5 9.2 99.9 3.5
2018 04 26 3:00 271.9 0.0 0.00 48.5 9.2 99.9 2.1
2018 04 26 4:00 267.5 0.0 0.00 48.3 9.1 99.9 4.1
2018 04 26 5:00 267.1 0.0 0.00 48.0 8.9 99.9 4.7
2018 04 26 6:00 267.9 0.0 0.00 47.3 8.5 99.9 5.9
2018 04 26 7:00 267.8 0.0 0.00 47.4 8.6 99.9 5.1
2018 04 26 8:00 266.4 0.0 0.00 47.6 8.6 99.9 6.4
2018 04 26 9:00 266.2 0.0 0.00 47.2 8.5 99.9 6.1
2018 04 26 10:00 264.9 0.0 0.00 48.1 8.9 99.9 4.4
2018 04 26 11:00 263.3 0.0 0.00 50.8 10.4 87.1 5.3
2018 04 26 12:00 262.0 0.0 0.00 54.4 12.4 77.12 4.2
2018 04 26 13:00 261.4 0.0 0.00 57.9 14.4 68.75 6.6
2018 04 26 14:00 261.7 0.0 0.00 58.5 14.7 64.79 6.3
2018 04 26 15:00 261.7 0.0 0.00 59.3 15.1 65.32 5.8
2018 04 26 16:00 261.7 0.0 0.00 59.2 15.1 65.4 5.0
2018 04 26 17:00 261.6 0.0 0.00 60.1 15.6 63.56 4.3
2018 04 26 18:00 261.8 0.0 0.00 59.9 15.5 64.25 5.1
2018 04 26 19:00 262.1 0.0 0.00 58.6 14.8 68.09 4.3
2018 04 26 20:00 263.2 0.0 0.00 56.0 13.3 73.36 4.8
2018 04 26 21:00 266.6 0.0 0.00 51.7 10.9 82.5 3.5
2018 04 26 22:00 269.6 0.0 0.00 48.9 9.4 92.2 4.2
2018 04 26 23:00 270.0 0.0 0.00 47.9 8.8 96.1 4.8
2018 04 26 24:00 276.7 0.0 0.00 45.1 7.3 98 4.2
2018 04 27 1:00 Wet 286.2 0.0 0.00 45.2 7.4 99.9 3.9
2018 04 27 2:00 Wet 290.3 0.0 0.00 45.4 7.5 99.9 4.1
2018 04 27 3:00 Wet 297.8 0.0 0.00 46.4 8.0 99.9 2.5
2018 04 27 4:00 Wet 305.1 0.0 0.00 46.9 8.3 99.9 4.6
2018 04 27 5:00 Wet 287.0 0.0 0.00 47.4 8.6 89.7 5.0
2018 04 27 6:00 267.1 0.0 0.00 46.2 7.9 83.9 3.0
2018 04 27 7:00 263.4 0.0 0.00 47.1 8.4 78.66 2.4
2018 04 27 8:00 261.8 0.0 0.00 52.0 11.1 59.95 4.9
2018 04 27 9:00 260.5 0.0 0.00 56.3 13.5 45.24 6.9
2018 04 27 10:00 260.5 0.0 0.00 58.3 14.6 41.06 7.3
2018 04 27 11:00 260.1 0.0 0.00 60.7 16.0 37.58 7.9
2018 04 27 12:00 259.1 0.0 0.00 62.3 16.8 36.53 8.4
2018 04 27 13:00 258.6 0.0 0.00 63.5 17.5 36.23 8.2
2018 04 27 14:00 258.4 0.0 0.00 64.4 18.0 34.75 10.2
2018 04 27 15:00 258.2 0.0 0.00 65.6 18.6 33.94 9.0
2018 04 27 16:00 258.2 0.0 0.00 66.1 19.0 33.63 9.2
2018 04 27 17:00 258.3 0.0 0.00 66.6 19.2 34.88 8.0
2018 04 27 18:00 258.6 0.0 0.00 66.0 18.9 35.22 6.9
2018 04 27 19:00 259.9 0.0 0.00 62.3 16.8 42.97 4.6
2018 04 27 20:00 262.0 0.0 0.00 56.1 13.4 55.04 4.1
2018 04 27 21:00 262.6 0.0 0.00 52.3 11.3 64.28 4.8
2018 04 27 22:00 263.1 0.0 0.00 49.9 9.9 68.95 4.8
2018 04 27 23:00 263.4 0.0 0.00 49.1 9.5 70.04 4.7
2018 04 27 24:00 263.2 0.0 0.00 49.3 9.6 67.76 5.1
2018 04 28 1:00 263.2 0.0 0.00 49.3 9.6 65.88 4.9
2018 04 28 2:00 263.2 0.0 0.00 48.7 9.3 65.66 4.7
2018 04 28 3:00 263.4 0.0 0.00 48.7 9.3 63.52 2.7
2018 04 28 4:00 263.5 0.0 0.00 48.4 9.1 63 3.0
2018 04 28 5:00 264.2 0.0 0.00 46.2 7.9 69.34 0.9
2018 04 28 6:00 265.3 0.0 0.00 43.4 6.3 77.29 1.9
2018 04 28 7:00 262.1 0.0 0.00 47.5 8.6 71.55 1.7
2018 04 28 8:00 260.6 0.0 0.00 54.2 12.4 54.43 7.2
2018 04 28 9:00 259.7 0.0 0.00 57.7 14.3 45.73 8.9
2018 04 28 10:00 259.8 0.0 0.00 60.0 15.6 42.47 8.0
2018 04 28 11:00 259.6 0.0 0.00 62.2 16.8 40.37 7.6
2018 04 28 12:00 258.6 0.0 0.00 64.0 17.8 36.69 7.5
2018 04 28 13:00 258.0 0.0 0.00 65.5 18.6 34.48 6.5
2018 04 28 14:00 257.7 0.0 0.00 66.3 19.1 32.54 7.2
2018 04 28 15:00 257.5 0.0 0.00 67.2 19.6 31.28 7.0
2018 04 28 16:00 257.4 0.0 0.00 67.4 19.7 29.79 6.7
2018 04 28 17:00 257.5 0.0 0.00 67.0 19.4 28.97 6.9
2018 04 28 18:00 257.8 0.0 0.00 65.6 18.7 31.18 6.5
2018 04 28 19:00 258.8 0.0 0.00 63.0 17.2 34.55 4.1
2018 04 28 20:00 259.8 0.0 0.00 58.9 14.9 39.87 1.9
2018 04 28 21:00 259.9 0.0 0.00 56.8 13.8 40.76 3.4
2018 04 28 22:00 260.0 0.0 0.00 55.7 13.2 40.21 4.8
2018 04 28 23:00 260.9 0.0 0.00 52.3 11.3 46.74 3.8
2018 04 28 24:00 261.3 0.0 0.00 50.2 10.1 50.95 4.2
2018 04 29 1:00 261.4 0.0 0.00 48.5 9.2 53.89 5.0
2018 04 29 2:00 261.3 0.0 0.00 48.9 9.4 52.78 7.1
2018 04 29 3:00 261.8 0.0 0.00 48.6 9.2 57.98 8.6
2018 04 29 4:00 262.1 0.0 0.00 49.1 9.5 58.2 9.9
2018 04 29 5:00 262.1 0.0 0.00 48.7 9.3 58.12 9.5
2018 04 29 6:00 261.8 0.0 0.00 48.5 9.2 57.16 10.4
2018 04 29 7:00 260.7 0.0 0.00 50.3 10.2 53.13 11.8
2018 04 29 8:00 260.0 0.0 0.00 53.3 11.8 47.17 14.5
2018 04 29 9:00 259.9 0.0 0.00 56.2 13.5 43.21 14.7
2018 04 29 10:00 259.9 0.0 0.00 59.1 15.1 41.09 14.5
2018 04 29 11:00 259.7 0.0 0.00 61.7 16.5 40.86 13.8
2018 04 29 12:00 259.1 0.0 0.00 64.4 18.0 39.86 11.9
2018 04 29 13:00 258.9 0.0 0.00 66.7 19.3 38.43 10.7
2018 04 29 14:00 258.5 0.0 0.00 68.1 20.0 39.03 10.0
2018 04 29 15:00 258.5 0.0 0.00 68.7 20.4 38.92 9.6
2018 04 29 16:00 258.4 0.0 0.00 69.2 20.7 38.14 10.0
2018 04 29 17:00 258.4 0.0 0.00 70.3 21.3 37.47 9.8
2018 04 29 18:00 258.3 0.0 0.00 70.2 21.2 36.99 10.1
2018 04 29 19:00 259.1 0.0 0.00 65.8 18.8 43.07 7.5
2018 04 29 20:00 260.3 0.0 0.00 61.8 16.6 47.23 6.6
2018 04 29 21:00 260.5 0.0 0.00 60.6 15.9 47.31 8.1
2018 04 29 22:00 260.5 0.0 0.00 59.3 15.2 48.61 9.4
2018 04 29 23:00 260.8 0.0 0.00 56.6 13.7 54.22 6.8
2018 04 29 24:00 261.7 0.0 0.00 54.0 12.2 60.45 5.8
2018 04 30 1:00 262.0 0.0 0.00 53.3 11.8 62.47 6.8
2018 04 30 2:00 262.0 0.0 0.00 52.5 11.4 63.51 7.4
2018 04 30 3:00 262.0 0.0 0.00 51.1 10.6 66.13 6.4
2018 04 30 4:00 262.0 0.0 0.00 50.3 10.2 66.85 6.7
2018 04 30 5:00 262.0 0.0 0.00 50.2 10.1 65.99 7.1
2018 04 30 6:00 262.0 0.0 0.00 50.1 10.1 65.17 8.1
2018 04 30 7:00 261.2 0.0 0.00 52.3 11.3 60.31 10.0
2018 04 30 8:00 260.5 0.0 0.00 57.5 14.2 53.61 12.0
2018 04 30 9:00 259.9 0.0 0.00 62.5 17.0 48.63 12.5
2018 04 30 10:00 259.8 0.0 0.00 66.4 19.1 46.51 12.8
2018 04 30 11:00 259.7 0.0 0.00 69.5 20.9 45.48 12.6
2018 04 30 12:00 259.0 0.0 0.00 73.2 22.9 43.73 15.4
2018 04 30 13:00 258.7 0.0 0.00 75.3 24.1 40.75 15.9
2018 04 30 14:00 258.3 0.0 0.00 76.3 24.6 38.44 14.4
2018 04 30 15:00 258.1 0.0 0.00 77.4 25.2 34.48 14.3
2018 04 30 16:00 257.5 0.0 0.00 77.5 25.3 30.23 15.0
2018 04 30 17:00 257.6 0.0 0.00 76.7 24.8 34.61 13.9
2018 04 30 18:00 257.7 0.0 0.00 75.3 24.0 37.2 11.4
2018 04 30 19:00 258.7 0.0 0.00 72.2 22.3 42.03 8.3
2018 04 30 20:00 259.7 0.0 0.00 67.8 19.9 47.73 6.5
2018 04 30 21:00 259.9 0.0 0.00 66.4 19.1 49.29 6.4
2018 04 30 22:00 260.3 0.0 0.00 65.6 18.7 51.19 6.5
2018 04 30 23:00 260.5 0.0 0.00 64.3 17.9 54.87 6.8
2018 04 30 24:00 261.1 0.0 0.00 61.8 16.5 60.5 6.9
2018 05 01 1:00 261.7 0.0 0.00 60.3 15.7 66.59 6.3
2018 05 01 2:00 261.9 0.0 0.00 60.5 15.8 67.32 7.0
2018 05 01 3:00 261.9 0.0 0.00 60.9 16.1 66.65 6.9
2018 05 01 4:00 261.9 0.0 0.00 59.6 15.3 70.16 6.5
2018 05 01 5:00 261.9 0.0 0.00 59.8 15.5 71.11 5.7
2018 05 01 6:00 261.9 0.0 0.00 61.0 16.1 68.85 8.2
2018 05 01 7:00 261.6 0.0 0.00 62.8 17.1 65.69 9.4
2018 05 01 8:00 261.0 0.0 0.00 65.0 18.3 61.88 12.5
2018 05 01 9:00 260.4 0.0 0.00 67.2 19.6 60.63 12.9
2018 05 01 10:00 260.3 0.0 0.00 69.0 20.6 61.83 14.8
2018 05 01 11:00 260.3 0.0 0.00 70.6 21.4 61.52 14.6
2018 05 01 12:00 260.2 0.0 0.00 71.3 21.8 62.53 15.4
2018 05 01 13:00 260.3 0.0 0.00 70.7 21.5 66.3 14.7
2018 05 01 14:00 260.2 0.0 0.00 72.3 22.4 64.44 15.9
2018 05 01 15:00 260.3 0.0 0.00 72.9 22.7 62.94 14.1
2018 05 01 16:00 260.3 0.0 0.00 72.7 22.6 60.63 13.2
2018 05 01 17:00 260.3 0.0 0.00 72.5 22.5 59.3 11.3
2018 05 01 18:00 260.3 0.0 0.00 72.6 22.6 59.06 11.2
2018 05 01 19:00 260.3 0.0 0.00 72.2 22.3 58.4 8.5
2018 05 01 20:00 261.0 0.0 0.00 70.5 21.4 58.5 7.4
2018 05 01 21:00 261.1 0.0 0.00 68.4 20.2 60.61 6.8
2018 05 01 22:00 261.3 0.0 0.00 68.9 20.5 61.95 9.1
2018 05 01 23:00 261.2 0.0 0.00 69.1 20.6 62.53 10.2
2018 05 01 24:00 261.2 0.0 0.00 68.8 20.5 63.61 8.0
2018 05 02 1:00 261.7 0.0 0.00 68.6 20.4 65.42 8.5
2018 05 02 2:00 261.7 0.0 0.00 67.8 19.9 68.99 8.2
2018 05 02 3:00 261.8 0.0 0.00 67.3 19.6 71.91 8.7
2018 05 02 4:00 262.3 0.0 0.00 66.7 19.3 74.47 5.9
2018 05 02 5:00 262.5 0.0 0.00 66.5 19.1 76.24 5.3
2018 05 02 6:00 262.5 0.0 0.00 67.0 19.4 76.2 6.7
2018 05 02 7:00 262.2 0.0 0.00 68.5 20.3 75.5 8.7
2018 05 02 8:00 261.7 0.0 0.00 70.4 21.3 73.57 11.1
2018 05 02 9:00 261.4 0.0 0.00 72.0 22.2 72.76 11.0
2018 05 02 10:00 261.5 0.0 0.00 73.0 22.8 70.51 14.3
2018 05 02 11:00 261.4 0.0 0.00 73.1 22.8 70.68 14.5
2018 05 02 12:00 261.4 0.0 0.00 72.9 22.7 72.71 12.3
2018 05 02 13:00 260.9 0.0 0.00 74.9 23.8 69.44 12.5
2018 05 02 14:00 260.7 0.0 0.00 76.5 24.7 66.17 13.5
2018 05 02 15:00 260.9 0.0 0.00 76.0 24.5 68.06 12.6
2018 05 02 16:00 260.8 0.0 0.00 76.3 24.6 67.58 10.7
2018 05 02 17:00 260.8 0.0 0.00 76.8 24.9 64.15 10.3
2018 05 02 18:00 261.4 0.0 0.00 76.4 24.6 63.57 10.6
2018 05 02 19:00 261.6 0.0 0.00 75.3 24.1 66.34 8.1
2018 05 02 20:00 261.6 0.0 0.00 74.7 23.7 68.8 9.6
2018 05 02 21:00 261.8 0.0 0.00 73.3 22.9 73.99 5.7
2018 05 02 22:00 262.3 0.0 0.00 72.6 22.6 76.7 7.4
2018 05 02 23:00 262.3 0.0 0.00 72.4 22.5 78.38 8.5
2018 05 02 24:00 262.9 0.0 0.00 71.8 22.1 81.2 7.9
2018 05 03 1:00 Wet 285.2 0.0 0.76 64.7 18.2 86.3 7.7
2018 05 03 2:00 283.6 0.0 1.02 64.5 18.1 93.5 9.4
2018 05 03 3:00 266.4 0.0 0.00 65.2 18.4 79.43 14.1
2018 05 03 4:00 263.1 0.0 0.00 62.7 17.0 91.4 3.3
2018 05 03 5:00 265.0 0.0 0.00 63.7 17.6 87.6 7.1
2018 05 03 6:00 265.2 0.0 0.00 64.6 18.1 88.6 8.5
2018 05 03 7:00 Wet 311.2 0.1 3.05 65.4 18.6 98.1 11.1
2018 05 03 8:00 Wet 310.9 0.0 0.76 64.5 18.0 99.9 5.8
2018 05 03 9:00 Wet 325.1 0.1 2.29 63.5 17.5 99.9 9.0
2018 05 03 10:00 Wet 297.2 0.0 0.51 64.3 18.0 99.9 7.5
2018 05 03 11:00 Wet 295.2 0.1 1.27 64.9 18.3 99.9 6.7
2018 05 03 12:00 Wet 332.5 0.2 5.84 63.9 17.7 99.9 6.8
2018 05 03 13:00 281.8 0.0 0.25 64.5 18.0 99.9 11.7
2018 05 03 14:00 Wet 302.5 0.0 0.51 64.8 18.2 94.8 13.9
2018 05 03 15:00 265.4 0.0 0.00 64.9 18.3 87.1 13.3
2018 05 03 16:00 263.4 0.0 0.00 66.9 19.4 82.2 11.2
2018 05 03 17:00 262.2 0.0 0.00 69.1 20.6 75.25 12.2
2018 05 03 18:00 261.9 0.0 0.00 69.8 21.0 72.39 12.6
2018 05 03 19:00 262.8 0.0 0.00 68.2 20.1 74.19 14.3
2018 05 03 20:00 263.3 0.0 0.00 66.1 18.9 77.91 14.1
2018 05 03 21:00 263.8 0.0 0.00 65.2 18.4 81.5 14.6
2018 05 03 22:00 264.2 0.0 0.00 64.8 18.2 84 13.5
2018 05 03 23:00 264.6 0.0 0.00 64.2 17.9 86.7 12.9
2018 05 03 24:00 265.1 0.0 0.00 64.4 18.0 89.4 12.7
2018 05 04 1:00 265.2 0.0 0.00 65.3 18.5 91.6 13.2
2018 05 04 2:00 265.2 0.0 0.00 65.8 18.8 94.3 12.1
2018 05 04 3:00 264.6 0.0 0.00 67.7 19.8 87.5 12.9
2018 05 04 4:00 264.9 0.0 0.00 67.0 19.4 96.1 8.1
2018 05 04 5:00 264.3 0.0 0.00 67.2 19.6 87.7 9.5
2018 05 04 6:00 264.0 0.0 0.00 65.5 18.6 83.2 9.8
2018 05 04 7:00 263.8 0.0 0.00 63.3 17.4 84.3 10.3
2018 05 04 8:00 263.6 0.0 0.00 60.8 16.0 85.5 9.3
2018 05 04 9:00 262.8 0.0 0.00 61.8 16.6 81 7.7
2018 05 04 10:00 261.9 0.0 0.00 63.4 17.5 75.47 6.6
2018 05 04 11:00 261.3 0.0 0.00 64.9 18.3 71.81 5.4
2018 05 04 12:00 260.5 0.0 0.00 66.0 18.9 68.6 4.9
2018 05 04 13:00 260.5 0.0 0.00 66.5 19.2 65.86 6.2
2018 05 04 14:00 260.4 0.0 0.00 66.4 19.1 64.58 5.4
2018 05 04 15:00 260.5 0.0 0.00 66.5 19.2 64.08 4.8
2018 05 04 16:00 260.0 0.0 0.00 68.1 20.1 59.92 4.7
2018 05 04 17:00 259.6 0.0 0.00 68.9 20.5 55.98 5.5
2018 05 04 18:00 259.6 0.0 0.00 68.5 20.3 54.78 5.0
2018 05 04 19:00 260.2 0.0 0.00 66.4 19.1 57.9 4.0
2018 05 04 20:00 262.0 0.0 0.00 63.0 17.2 61.54 0.6
2018 05 04 21:00 265.3 0.0 0.00 57.2 14.0 77.57 2.4
2018 05 04 22:00 273.2 0.0 0.00 54.4 12.5 83.8 0.9
2018 05 04 23:00 Wet 292.8 0.0 0.00 52.0 11.1 99.5 0.0
2018 05 04 24:00 Wet 321.3 0.0 0.00 50.9 10.5 99.9 0.0
2018 05 05 1:00 Wet 348.3 0.0 0.00 49.5 9.8 99.9 0.0
2018 05 05 2:00 Wet 346.6 0.0 0.00 48.3 9.1 99.9 0.0
2018 05 05 3:00 Wet 351.5 0.0 0.00 47.8 8.8 99.9 0.0
2018 05 05 4:00 Wet 353.3 0.0 0.00 46.9 8.3 99.9 0.0
2018 05 05 5:00 Wet 349.3 0.0 0.00 46.0 7.8 99.9 0.0
2018 05 05 6:00 Wet 344.0 0.0 0.00 45.9 7.7 99.9 0.0
2018 05 05 7:00 Wet 296.1 0.0 0.00 49.7 9.8 99.9 0.0
2018 05 05 8:00 264.2 0.0 0.00 58.5 14.7 86.8 1.9
2018 05 05 9:00 260.5 0.0 0.00 65.6 18.7 66.35 5.1
2018 05 05 10:00 260.1 0.0 0.00 69.9 21.1 53.32 5.5
2018 05 05 11:00 259.5 0.0 0.00 72.7 22.6 43.39 6.8
2018 05 05 12:00 258.5 0.0 0.00 74.3 23.5 39.29 6.3
2018 05 05 13:00 257.9 0.0 0.00 75.6 24.2 38.62 6.9
2018 05 05 14:00 257.6 0.0 0.00 76.6 24.8 38.07 7.4
2018 05 05 15:00 257.7 0.0 0.00 76.7 24.8 37.21 7.5
2018 05 05 16:00 257.3 0.0 0.00 77.6 25.3 34.18 6.7
2018 05 05 17:00 257.1 0.0 0.00 77.3 25.2 33.76 6.7
2018 05 05 18:00 257.1 0.0 0.00 76.6 24.8 32.89 5.4
2018 05 05 19:00 258.1 0.0 0.00 74.4 23.5 35.75 1.4
2018 05 05 20:00 261.3 0.0 0.00 67.3 19.6 52.55 2.2
2018 05 05 21:00 263.7 0.0 0.00 61.8 16.6 66.27 0.4
2018 05 05 22:00 265.5 0.0 0.00 58.9 14.9 72.11 0.0
2018 05 05 23:00 264.5 0.0 0.00 57.0 13.9 76.45 1.7
2018 05 05 24:00 267.2 0.0 0.00 55.3 12.9 81.1 0.0
2018 05 06 1:00 268.2 0.0 0.00 54.3 12.4 81.8 0.4
2018 05 06 2:00 270.4 0.0 0.00 53.4 11.9 86 0.5
2018 05 06 3:00 278.8 0.0 0.00 51.8 11.0 99.9 0.4
2018 05 06 4:00 282.1 0.0 0.00 53.0 11.7 86.8 1.0
2018 05 06 5:00 266.7 0.0 0.00 54.7 12.6 77.36 3.1
2018 05 06 6:00 264.3 0.0 0.00 55.4 13.0 76.98 2.0
2018 05 06 7:00 262.3 0.0 0.00 58.6 14.8 77.3 3.5
2018 05 06 8:00 260.9 0.0 0.00 65.0 18.4 61.6 7.5
2018 05 06 9:00 259.6 0.0 0.00 69.7 20.9 53.65 8.4
2018 05 06 10:00 259.6 0.0 0.00 73.0 22.8 48.14 9.3
2018 05 06 11:00 258.8 0.0 0.00 75.9 24.4 42.46 8.7
2018 05 06 12:00 258.2 0.0 0.00 78.0 25.6 42.03 8.3
2018 05 06 13:00 257.6 0.0 0.00 79.3 26.3 38.26 9.5
2018 05 06 14:00 257.4 0.0 0.00 79.8 26.5 38.64 7.7
2018 05 06 15:00 257.2 0.0 0.00 79.6 26.4 39.66 4.4
2018 05 06 16:00 257.4 0.0 0.00 79.7 26.5 40.23 5.2
2018 05 06 17:00 258.7 0.0 0.00 77.1 25.0 43.8 1.1
2018 05 06 18:00 259.8 0.0 0.00 74.2 23.4 53.67 2.0
2018 05 06 19:00 260.5 0.0 0.00 72.2 22.4 51.67 0.6
2018 05 06 20:00 262.0 0.0 0.00 67.6 19.8 62.33 0.0
2018 05 06 21:00 263.3 0.0 0.00 63.9 17.7 72.44 0.6
2018 05 06 22:00 266.0 0.0 0.00 60.3 15.7 80.2 1.3
2018 05 06 23:00 268.7 0.0 0.00 57.5 14.2 85.1 0.0
2018 05 06 24:00 271.9 0.0 0.00 57.2 14.0 87.8 0.0
2018 05 07 1:00 Wet 285.5 0.0 0.00 55.2 12.9 99.9 0.0
2018 05 07 2:00 Wet 307.8 0.0 0.00 53.6 12.0 99.9 0.0
2018 05 07 3:00 Wet 332.9 0.0 0.00 52.7 11.5 99.9 0.0
2018 05 07 4:00 Wet 352.1 0.0 0.00 51.4 10.8 99.9 0.0
2018 05 07 5:00 Wet 350.1 0.0 0.00 51.1 10.6 99.9 0.0
2018 05 07 6:00 Wet 340.1 0.0 0.00 51.7 10.9 99.9 0.1
2018 05 07 7:00 Wet 291.9 0.0 0.00 55.8 13.2 92.4 0.1
2018 05 07 8:00 263.5 0.0 0.00 64.6 18.1 72.96 0.1
2018 05 07 9:00 259.2 0.0 0.00 72.4 22.4 60.48 0.5
2018 05 07 10:00 259.2 0.0 0.00 76.6 24.8 48.5 0.4
2018 05 07 11:00 258.5 0.0 0.25 79.7 26.5 39.46 0.7
2018 05 07 12:00 256.9 0.0 0.00 81.6 27.5 30.58 1.8
2018 05 07 13:00 256.1 0.0 0.00 82.7 28.2 28.69 2.6
2018 05 07 14:00 256.1 0.0 0.00 82.9 28.3 27.6 3.1
2018 05 07 15:00 255.7 0.0 0.00 83.2 28.4 26.83 2.1
2018 05 07 16:00 255.5 0.0 0.00 83.3 28.5 27.05 2.3
2018 05 07 17:00 255.1 0.0 0.00 83.9 28.8 26.52 0.8
2018 05 07 18:00 255.4 0.0 0.00 82.7 28.2 30.28 0.9
2018 05 07 19:00 256.9 0.0 0.00 79.1 26.2 34.04 0.3
2018 05 07 20:00 259.4 0.0 0.00 73.1 22.8 42.99 1.3
2018 05 07 21:00 260.5 0.0 0.00 68.5 20.3 50.32 1.3
2018 05 07 22:00 261.6 0.0 0.00 63.8 17.7 60.9 1.1
2018 05 07 23:00 261.7 0.0 0.00 62.0 16.7 65 1.8
2018 05 07 24:00 262.5 0.0 0.00 60.7 15.9 65.12 1.0
2018 05 08 1:00 261.9 0.0 0.00 59.7 15.4 65.19 3.8
2018 05 08 2:00 261.6 0.0 0.00 61.6 16.4 66.66 7.0
2018 05 08 3:00 262.0 0.0 0.00 62.3 16.8 71.44 8.3
2018 05 08 4:00 262.0 0.0 0.00 62.5 16.9 71.75 8.0
2018 05 08 5:00 262.0 0.0 0.00 61.6 16.5 72.28 7.0
2018 05 08 6:00 262.0 0.0 0.00 61.4 16.4 72.09 8.4
2018 05 08 7:00 261.5 0.0 0.00 62.7 17.1 70.27 8.7
2018 05 08 8:00 260.9 0.0 0.00 65.1 18.4 66.28 10.8
2018 05 08 9:00 260.0 0.0 0.00 68.4 20.2 63.91 9.4
2018 05 08 10:00 259.7 0.0 0.00 72.5 22.5 61.8 8.4
2018 05 08 11:00 259.2 0.0 0.00 76.3 24.6 56.38 8.9
2018 05 08 12:00 258.9 0.0 0.00 79.5 26.4 53.11 9.9
2018 05 08 13:00 258.2 0.0 0.00 82.1 27.9 45.08 11.5
2018 05 08 14:00 257.6 0.0 0.00 83.8 28.8 38.57 12.7
2018 05 08 15:00 257.5 0.0 0.00 82.9 28.3 38.54 11.5
2018 05 08 16:00 257.4 0.0 0.00 82.9 28.3 37.88 11.0
2018 05 08 17:00 257.5 0.0 0.00 81.1 27.3 42.2 7.6
2018 05 08 18:00 258.2 0.0 0.00 79.2 26.2 46.1 7.3
2018 05 08 19:00 258.4 0.0 0.00 78.1 25.6 48.7 7.5
2018 05 08 20:00 258.6 0.0 0.00 77.0 25.0 49.88 7.8
2018 05 08 21:00 258.7 0.0 0.00 76.4 24.7 48.8 9.6
2018 05 08 22:00 258.8 0.0 0.00 76.3 24.6 48.97 10.7
2018 05 08 23:00 259.0 0.0 0.00 74.5 23.6 52.88 7.7
2018 05 08 24:00 259.1 0.0 0.00 73.2 22.9 55.59 7.9
2018 05 09 1:00 259.5 0.0 0.00 72.9 22.7 55.96 12.2
2018 05 09 2:00 259.7 0.0 0.00 71.1 21.7 60.77 9.2
2018 05 09 3:00 259.8 0.0 0.00 70.4 21.3 60.84 10.9
2018 05 09 4:00 260.2 0.0 0.00 69.6 20.9 63.94 11.9
2018 05 09 5:00 260.1 0.0 0.00 69.6 20.9 61.25 11.9
2018 05 09 6:00 260.1 0.0 0.00 69.2 20.7 62.08 10.4
2018 05 09 7:00 260.1 0.0 0.00 68.5 20.3 66.19 8.6
2018 05 09 8:00 259.5 0.0 0.00 70.8 21.6 64.1 11.7
2018 05 09 9:00 259.3 0.0 0.00 73.4 23.0 58.97 15.1
2018 05 09 10:00 259.6 0.0 0.00 75.3 24.1 57.44 13.3
2018 05 09 11:00 259.5 0.0 0.00 77.3 25.1 57.25 11.3
2018 05 09 12:00 258.9 0.0 0.00 79.3 26.3 54.73 10.5
2018 05 09 13:00 258.3 0.0 0.00 81.1 27.3 49.91 9.7
2018 05 09 14:00 258.1 0.0 0.00 82.3 28.0 46.88 9.2
2018 05 09 15:00 257.6 0.0 0.00 83.2 28.4 43.35 10.3
2018 05 09 16:00 257.5 0.0 0.00 83.6 28.7 43.42 8.5
2018 05 09 17:00 257.6 0.0 0.00 82.3 28.0 46.5 8.0
2018 05 09 18:00 257.8 0.0 0.00 81.2 27.3 49.67 6.6
2018 05 09 19:00 259.2 0.0 0.00 77.1 25.1 59.98 2.9
2018 05 09 20:00 261.4 0.0 0.00 71.5 21.9 68.82 3.3
2018 05 09 21:00 261.7 0.0 0.00 70.8 21.5 67.37 1.6
2018 05 09 22:00 262.0 0.0 0.00 69.8 21.0 68.56 0.8
2018 05 09 23:00 263.5 0.0 0.00 67.5 19.7 74.6 0.1
2018 05 09 24:00 264.3 0.0 0.00 67.2 19.6 74.31 1.6
2018 05 10 1:00 261.8 0.0 0.00 68.8 20.4 70 7.2
2018 05 10 2:00 261.8 0.0 0.00 68.2 20.1 68.85 6.1
2018 05 10 3:00 262.0 0.0 0.00 67.4 19.6 70.4 2.7
2018 05 10 4:00 Wet 363.0 0.1 3.56 65.6 18.7 79.8 9.9
2018 05 10 5:00 Wet 358.4 0.1 2.03 63.6 17.6 83.1 9.4
2018 05 10 6:00 Wet 284.7 0.0 0.25 63.7 17.6 84.9 5.5
2018 05 10 7:00 269.6 0.0 0.00 65.1 18.4 83 5.0
2018 05 10 8:00 262.2 0.0 0.00 67.0 19.4 78.9 8.4
2018 05 10 9:00 261.8 0.0 0.00 68.8 20.5 73.59 9.5
2018 05 10 10:00 261.6 0.0 0.00 69.4 20.8 70.7 8.0
2018 05 10 11:00 261.0 0.0 0.00 70.1 21.2 68.99 6.0
2018 05 10 12:00 260.4 0.0 0.00 71.2 21.8 67.2 7.1
2018 05 10 13:00 260.6 0.0 0.00 70.1 21.1 66.32 5.5
2018 05 10 14:00 260.3 0.0 0.00 70.2 21.2 68.17 3.3
2018 05 10 15:00 259.0 0.0 0.00 76.0 24.4 55.86 8.7
2018 05 10 16:00 258.4 0.0 0.00 78.2 25.6 51.15 8.6
2018 05 10 17:00 258.3 0.0 0.00 78.2 25.7 50.46 7.1
2018 05 10 18:00 257.6 0.0 0.00 78.8 26.0 46.63 4.5
2018 05 10 19:00 258.8 0.0 0.00 75.1 24.0 52.5 3.3
2018 05 10 20:00 260.3 0.0 0.00 70.9 21.6 55.27 3.7
2018 05 10 21:00 260.3 0.0 0.00 68.5 20.3 54.78 4.5
2018 05 10 22:00 260.5 0.0 0.00 66.2 19.0 56.4 4.5
2018 05 10 23:00 260.5 0.0 0.00 65.1 18.4 59.68 5.1
2018 05 10 24:00 260.9 0.0 0.00 63.7 17.6 65.4 4.5
2018 05 11 1:00 262.0 0.0 0.00 61.2 16.2 72.03 3.5
2018 05 11 2:00 263.1 0.0 0.00 59.8 15.4 76.78 3.0
2018 05 11 3:00 264.3 0.0 0.00 58.3 14.6 82 1.9
2018 05 11 4:00 264.2 0.0 0.00 58.4 14.7 83.3 4.3
2018 05 11 5:00 264.7 0.0 0.00 59.1 15.1 82.4 2.2
2018 05 11 6:00 262.5 0.0 0.00 62.2 16.8 77.01 5.6
2018 05 11 7:00 261.6 0.0 0.00 66.1 18.9 70.41 10.0
2018 05 11 8:00 260.8 0.0 0.00 70.4 21.3 66.15 15.1
2018 05 11 9:00 260.4 0.0 0.00 72.7 22.6 62.38 17.6
2018 05 11 10:00 260.2 0.0 0.00 74.8 23.8 54.92 18.5
2018 05 11 11:00 259.5 0.0 0.00 77.2 25.1 50 15.5
2018 05 11 12:00 259.3 0.0 0.00 76.6 24.8 48.94 9.9
2018 05 11 13:00 258.7 0.0 0.00 78.8 26.0 47.87 11.7
2018 05 11 14:00 258.4 0.0 0.00 81.2 27.3 40.95 16.7
2018 05 11 15:00 257.8 0.0 0.00 82.5 28.1 38.2 15.7
2018 05 11 16:00 257.6 0.0 0.00 82.1 27.8 38.65 15.8
2018 05 11 17:00 257.4 0.0 0.00 82.0 27.8 38.41 14.2
2018 05 11 18:00 257.4 0.0 0.00 80.6 27.0 42.13 11.0
2018 05 11 19:00 258.4 0.0 0.00 77.9 25.5 48.19 10.6
2018 05 11 20:00 259.4 0.0 0.00 74.5 23.6 54.97 8.0
2018 05 11 21:00 259.8 0.0 0.00 72.6 22.6 59.31 7.2
2018 05 11 22:00 260.7 0.0 0.00 70.1 21.2 66.04 4.8
2018 05 11 23:00 262.4 0.0 0.00 67.7 19.9 71.89 0.8
2018 05 11 24:00 264.2 0.0 0.00 65.7 18.7 77.44 0.0
2018 05 12 1:00 267.0 0.0 0.00 64.2 17.9 81.6 2.0
2018 05 12 2:00 264.6 0.0 0.00 63.6 17.6 83.9 3.9
2018 05 12 3:00 263.8 0.0 0.00 64.2 17.9 82.9 4.5
2018 05 12 4:00 264.6 0.0 0.00 65.1 18.4 80.9 0.2
2018 05 12 5:00 264.0 0.0 0.00 65.2 18.4 82 3.7
2018 05 12 6:00 263.2 0.0 0.00 66.4 19.1 80.1 5.0
2018 05 12 7:00 262.7 0.0 0.00 67.6 19.8 79.27 5.0
2018 05 12 8:00 262.2 0.0 0.00 69.7 20.9 76.34 6.2
2018 05 12 9:00 261.1 0.0 0.00 72.2 22.3 72.71 5.2
2018 05 12 10:00 260.4 0.0 0.00 75.3 24.0 64.06 13.4
2018 05 12 11:00 260.2 0.0 0.00 76.2 24.5 63.82 12.2
2018 05 12 12:00 259.7 0.0 0.00 76.5 24.7 63.61 10.4
2018 05 12 13:00 259.5 0.0 0.00 77.6 25.3 61.59 11.5
2018 05 12 14:00 259.2 0.0 0.00 79.1 26.1 59.42 13.9
2018 05 12 15:00 259.1 0.0 0.00 79.8 26.6 56.66 14.8
2018 05 12 16:00 259.0 0.0 0.00 80.1 26.7 54.76 14.5
2018 05 12 17:00 258.6 0.0 0.00 80.4 26.9 55.03 11.4
2018 05 12 18:00 258.9 0.0 0.00 78.9 26.1 57.62 9.5
2018 05 12 19:00 259.7 0.0 0.00 76.5 24.7 62.12 7.4
2018 05 12 20:00 261.1 0.0 0.00 73.1 22.9 67.3 4.0
2018 05 12 21:00 262.3 0.0 0.00 70.8 21.6 71.48 1.6
2018 05 12 22:00 264.4 0.0 0.00 68.7 20.4 76.26 0.9
2018 05 12 23:00 265.8 0.0 0.00 66.7 19.3 81.5 0.0
2018 05 12 24:00 267.4 0.0 0.00 64.1 17.9 88.2 0.0
2018 05 13 1:00 280.6 0.0 0.00 62.6 17.0 98.7 0.7
2018 05 13 2:00 Wet 292.1 0.0 0.00 63.5 17.5 97 1.0
2018 05 13 3:00 Wet 302.0 0.0 0.00 61.9 16.6 99.8 1.4
2018 05 13 4:00 Wet 311.9 0.0 0.00 62.0 16.6 99.9 3.0
2018 05 13 5:00 Wet 317.4 0.0 0.00 62.9 17.1 99.9 3.7
2018 05 13 6:00 Wet 314.0 0.0 0.00 63.1 17.3 99.9 3.0
2018 05 13 7:00 278.2 0.0 0.00 66.0 18.9 95.8 3.9
2018 05 13 8:00 261.9 0.0 0.00 71.4 21.9 78.92 6.3
2018 05 13 9:00 260.8 0.0 0.00 75.2 24.0 73.3 8.0
2018 05 13 10:00 261.0 0.0 0.00 77.7 25.4 70.34 9.5
2018 05 13 11:00 260.5 0.0 0.00 79.7 26.5 65.26 10.7
2018 05 13 12:00 260.2 0.0 0.00 80.5 26.9 62.66 10.1
2018 05 13 13:00 259.7 0.0 0.00 81.6 27.6 61.28 9.2
2018 05 13 14:00 259.3 0.0 0.00 82.8 28.2 56.24 10.2
2018 05 13 15:00 258.9 0.0 0.00 83.7 28.7 53.87 9.5
2018 05 13 16:00 258.5 0.0 0.00 83.4 28.6 50.07 10.4
2018 05 13 17:00 258.2 0.0 0.00 83.3 28.5 51.62 8.2
2018 05 13 18:00 258.7 0.0 0.00 81.3 27.4 55.53 7.0
2018 05 13 19:00 260.1 0.0 0.00 77.5 25.3 61.6 4.4
2018 05 13 20:00 261.0 0.0 0.00 74.6 23.7 65.28 4.7
2018 05 13 21:00 261.3 0.0 0.00 73.1 22.9 65.67 5.2
2018 05 13 22:00 262.1 0.0 0.00 70.2 21.2 70.53 3.3
2018 05 13 23:00 263.1 0.0 0.00 68.7 20.4 72.62 2.1
2018 05 13 24:00 263.2 0.0 0.00 67.9 19.9 73.99 2.1
2018 05 14 1:00 263.2 0.0 0.00 67.3 19.6 75.17 3.1
2018 05 14 2:00 263.1 0.0 0.00 66.9 19.4 77.61 3.8
2018 05 14 3:00 263.2 0.0 0.00 66.7 19.3 79.88 3.9
2018 05 14 4:00 263.4 0.0 0.00 66.6 19.2 82 4.1
2018 05 14 5:00 263.7 0.0 0.00 66.5 19.2 82.9 4.7
2018 05 14 6:00 263.2 0.0 0.00 67.1 19.5 82.2 6.7
2018 05 14 7:00 262.0 0.0 0.00 70.0 21.1 77.35 7.7
2018 05 14 8:00 261.1 0.0 0.00 73.9 23.3 71.34 9.2
2018 05 14 9:00 260.9 0.0 0.00 76.3 24.6 69.35 11.4
2018 05 14 10:00 260.9 0.0 0.00 77.9 25.5 68.7 12.0
2018 05 14 11:00 260.4 0.0 0.00 79.9 26.6 65.94 11.3
2018 05 14 12:00 260.0 0.0 0.00 81.5 27.5 62.42 11.1
2018 05 14 13:00 259.5 0.0 0.00 82.9 28.3 59.9 11.1
2018 05 14 14:00 259.3 0.0 0.00 83.9 28.8 56.62 10.9
2018 05 14 15:00 258.9 0.0 0.00 84.5 29.1 52.6 11.7
2018 05 14 16:00 258.6 0.0 0.00 84.3 29.0 50.84 10.3
2018 05 14 17:00 259.0 0.0 0.00 82.6 28.1 53.27 8.2
2018 05 14 18:00 259.9 0.0 0.00 79.8 26.6 58.36 3.9
2018 05 14 19:00 260.7 0.0 0.00 78.1 25.6 60.77 2.2
2018 05 14 20:00 261.0 0.0 0.00 72.5 22.5 53.51 3.4
2018 05 14 21:00 260.8 0.0 0.00 70.6 21.4 56.34 4.2
2018 05 14 22:00 261.9 0.0 0.00 68.4 20.2 63.82 1.5
2018 05 14 23:00 261.5 0.0 0.00 69.5 20.8 63.38 4.9
2018 05 14 24:00 261.8 0.0 0.00 68.3 20.2 64.68 1.5
2018 05 15 1:00 Wet 335.2 0.1 2.54 65.5 18.6 78.23 6.1
2018 05 15 2:00 Wet 486.1 0.2 5.33 61.2 16.2 99.7 7.6
2018 05 15 3:00 Wet 449.7 0.1 1.78 60.5 15.8 99.8 7.9
2018 05 15 4:00 Wet 345.1 0.0 1.02 60.2 15.7 99.9 3.6
2018 05 15 5:00 279.9 0.0 0.25 60.9 16.0 95.5 6.4
2018 05 15 6:00 273.0 0.0 0.00 60.7 15.9 99.4 0.5
2018 05 15 7:00 268.5 0.0 0.00 61.3 16.3 99.9 1.1
2018 05 15 8:00 263.2 0.0 0.00 63.8 17.7 97 3.3
2018 05 15 9:00 262.1 0.0 0.00 66.7 19.3 81.2 5.6
2018 05 15 10:00 261.8 0.0 0.00 68.1 20.1 78.43 6.8
2018 05 15 11:00 261.5 0.0 0.00 69.6 20.9 74.71 7.3
2018 05 15 12:00 260.8 0.0 0.00 71.0 21.6 71.33 6.7
2018 05 15 13:00 260.1 0.0 0.00 73.2 22.9 70.28 6.0
2018 05 15 14:00 260.2 0.0 0.00 74.1 23.4 69.86 5.4
2018 05 15 15:00 259.7 0.0 0.00 76.2 24.5 67.44 4.7
2018 05 15 16:00 259.5 0.0 0.00 76.8 24.9 63.79 2.7
2018 05 15 17:00 259.6 0.0 0.00 77.1 25.1 64.63 3.1
2018 05 15 18:00 260.7 0.0 0.00 75.3 24.1 68.32 1.7
2018 05 15 19:00 262.5 0.0 0.00 72.8 22.6 75.43 0.5
2018 05 15 20:00 268.4 0.0 0.00 69.5 20.8 85.4 0.1
2018 05 15 21:00 275.6 0.0 0.00 68.0 20.0 96 0.1
2018 05 15 22:00 Wet 289.2 0.0 0.00 66.1 19.0 99.9 0.3
2018 05 15 23:00 Wet 308.6 0.0 0.00 64.7 18.2 99.8 0.0
2018 05 15 24:00 Wet 322.1 0.0 0.00 63.7 17.6 99.8 0.0
2018 05 16 1:00 Wet 334.6 0.0 0.00 62.6 17.0 99.8 0.0
2018 05 16 2:00 Wet 347.7 0.0 0.00 61.5 16.4 99.8 0.2
2018 05 16 3:00 Wet 355.2 0.0 0.00 60.9 16.0 99.9 0.1
2018 05 16 4:00 Wet 352.9 0.0 0.00 60.3 15.7 99.9 0.2
2018 05 16 5:00 Wet 357.1 0.0 0.00 59.8 15.5 99.9 0.3
2018 05 16 6:00 Wet 354.0 0.0 0.00 60.0 15.5 99.9 0.0
2018 05 16 7:00 Wet 295.7 0.0 0.00 63.6 17.6 99.8 0.2
2018 05 16 8:00 262.8 0.0 0.00 70.1 21.2 91.7 0.5
2018 05 16 9:00 260.9 0.0 0.00 74.1 23.4 74.89 2.5
2018 05 16 10:00 260.7 0.0 0.00 75.6 24.2 70.39 2.6
2018 05 16 11:00 260.8 0.0 0.00 76.7 24.8 65.85 4.5
2018 05 16 12:00 260.3 0.0 0.00 78.0 25.5 62.15 4.6
2018 05 16 13:00 259.6 0.0 0.00 78.5 25.8 59.94 5.0
2018 05 16 14:00 259.2 0.0 0.00 79.6 26.4 56.59 3.1
2018 05 16 15:00 259.1 0.0 0.00 80.1 26.7 56.52 1.9
2018 05 16 16:00 259.8 0.0 0.00 78.9 26.1 58.99 0.4
2018 05 16 17:00 260.9 0.0 0.00 76.3 24.6 68.69 3.4
2018 05 16 18:00 262.1 0.0 0.00 69.8 21.0 82.1 8.2
2018 05 16 19:00 262.4 0.0 0.00 68.8 20.4 82.4 6.3
2018 05 16 20:00 263.2 0.0 0.00 67.5 19.7 83.1 3.6
2018 05 16 21:00 266.5 0.0 0.00 65.3 18.5 97 1.6
2018 05 16 22:00 268.4 0.0 0.00 64.2 17.9 99.8 1.1
2018 05 16 23:00 274.1 0.0 0.00 63.3 17.4 99.8 0.6
2018 05 16 24:00 277.1 0.0 0.00 63.2 17.4 99.8 2.7
2018 05 17 1:00 Wet 322.5 0.0 1.02 64.1 17.8 99.8 2.6
2018 05 17 2:00 Wet 293.9 0.0 0.00 62.2 16.8 99.8 3.4
2018 05 17 3:00 Wet 288.3 0.0 0.00 61.9 16.6 99.8 2.9
2018 05 17 4:00 Wet 305.2 0.0 0.00 61.4 16.3 99.8 1.4
2018 05 17 5:00 Wet 332.9 0.0 0.00 60.2 15.7 99.9 2.1
2018 05 17 6:00 Wet 342.5 0.0 0.00 58.9 15.0 99.9 0.3
2018 05 17 7:00 Wet 315.2 0.0 0.00 60.4 15.8 99.9 0.8
2018 05 17 8:00 262.5 0.0 0.00 67.4 19.6 79.53 0.8
2018 05 17 9:00 259.8 0.0 0.00 71.8 22.1 64.32 0.7
2018 05 17 10:00 261.4 0.0 0.00 73.1 22.8 67.31 3.0
2018 05 17 11:00 261.0 0.0 0.00 74.9 23.8 62.1 2.6
2018 05 17 12:00 259.9 0.0 0.00 76.0 24.5 58.78 2.0
2018 05 17 13:00 259.3 0.0 0.00 77.2 25.1 56.61 1.7
2018 05 17 14:00 258.6 0.0 0.00 79.2 26.2 49.16 2.7
2018 05 17 15:00 258.5 0.0 0.00 79.9 26.6 47.98 5.7
2018 05 17 16:00 258.9 0.0 0.00 77.4 25.2 53.04 8.5
2018 05 17 17:00 259.5 0.0 0.00 74.3 23.5 62.72 10.0
2018 05 17 18:00 259.8 0.0 0.00 71.0 21.7 66.61 7.8
2018 05 17 19:00 260.3 0.0 0.00 69.2 20.6 67.71 5.9
2018 05 17 20:00 261.8 0.0 0.00 66.4 19.1 75.85 5.4
2018 05 17 21:00 262.8 0.0 0.00 64.5 18.1 82.4 5.6
2018 05 17 22:00 267.5 0.0 0.00 62.8 17.1 94.8 2.0
2018 05 17 23:00 Wet 286.9 0.0 0.00 61.2 16.2 99.8 0.0
2018 05 17 24:00 Wet 310.9 0.0 0.00 59.6 15.3 99.9 1.2
2018 05 18 1:00 Wet 334.8 0.0 0.00 59.1 15.0 99.9 0.4
2018 05 18 2:00 Wet 352.1 0.0 0.00 58.3 14.6 99.9 0.1
2018 05 18 3:00 Wet 350.3 0.0 0.00 58.2 14.6 99.9 0.0
2018 05 18 4:00 Wet 360.1 0.0 0.00 58.4 14.7 99.9 1.3
2018 05 18 5:00 Wet 363.8 0.0 0.00 58.3 14.6 99.9 1.3
2018 05 18 6:00 Wet 355.5 0.0 0.00 57.7 14.3 99.9 0.5
2018 05 18 7:00 Wet 300.2 0.0 0.00 60.2 15.7 99.9 3.7
2018 05 18 8:00 264.2 0.0 0.00 64.7 18.1 97.3 5.3
2018 05 18 9:00 261.3 0.0 0.00 69.7 20.9 80.1 5.1
2018 05 18 10:00 261.4 0.0 0.00 73.5 23.1 67.5 3.7
2018 05 18 11:00 260.4 0.0 0.00 75.8 24.3 62.24 2.5
2018 05 18 12:00 259.4 0.0 0.00 77.6 25.4 57.83 2.8
2018 05 18 13:00 259.0 0.0 0.00 78.2 25.7 54.75 3.6
2018 05 18 14:00 258.4 0.0 0.00 79.9 26.6 50.8 3.2
2018 05 18 15:00 257.8 0.0 0.00 80.7 27.1 47.35 2.5
2018 05 18 16:00 257.2 0.0 0.00 81.9 27.7 45.94 2.3
2018 05 18 17:00 257.1 0.0 0.00 81.6 27.6 46.7 2.7
2018 05 18 18:00 257.4 0.0 0.00 80.0 26.6 49.69 2.2
2018 05 18 19:00 259.5 0.0 0.00 76.6 24.8 58.2 0.9
2018 05 18 20:00 264.4 0.0 0.00 73.1 22.8 63.36 0.3
2018 05 18 21:00 265.4 0.0 0.00 69.0 20.6 74.48 0.3
2018 05 18 22:00 266.6 0.0 0.00 66.5 19.1 84.5 0.9
2018 05 18 23:00 266.2 0.0 0.00 65.9 18.9 84.6 1.6
2018 05 18 24:00 265.2 0.0 0.00 65.3 18.5 86 1.7
2018 05 19 1:00 264.7 0.0 0.00 65.5 18.6 85.5 3.4
2018 05 19 2:00 263.4 0.0 0.00 66.8 19.3 81.7 5.7
2018 05 19 3:00 263.2 0.0 0.00 67.5 19.7 79.54 3.5
2018 05 19 4:00 264.3 0.0 0.00 65.5 18.6 85.2 1.4
2018 05 19 5:00 265.4 0.0 0.00 65.1 18.4 89.9 1.2
2018 05 19 6:00 264.1 0.0 0.00 64.9 18.3 95.3 1.4
2018 05 19 7:00 262.5 0.0 0.00 67.0 19.5 87.2 2.4
2018 05 19 8:00 260.7 0.0 0.00 71.6 22.0 76.65 2.5
2018 05 19 9:00 260.2 0.0 0.00 74.6 23.7 73.77 4.2
2018 05 19 10:00 260.4 0.0 0.00 78.0 25.6 70.47 2.7
2018 05 19 11:00 260.6 0.0 0.00 76.9 25.0 69.18 7.1
2018 05 19 12:00 260.6 0.0 0.00 72.0 22.2 70.36 8.8
2018 05 19 13:00 260.3 0.0 0.00 75.2 24.0 70.15 7.9
2018 05 19 14:00 260.3 0.0 0.00 75.9 24.4 73.48 8.4
2018 05 19 15:00 259.9 0.0 0.00 79.7 26.5 69.28 7.9
2018 05 19 16:00 258.6 0.0 0.00 84.8 29.4 48.36 10.5
2018 05 19 17:00 258.6 0.0 0.00 83.7 28.7 45.91 8.9
2018 05 19 18:00 280.3 0.0 0.00 70.1 21.2 64.09 9.7
2018 05 19 19:00 283.1 0.0 0.00 66.3 19.1 80.6 3.4
2018 05 19 20:00 263.6 0.0 0.00 65.8 18.8 76.43 3.1
2018 05 19 21:00 263.8 0.0 0.00 64.4 18.0 79.98 2.9
2018 05 19 22:00 263.4 0.0 0.00 65.4 18.5 78.07 5.8
2018 05 19 23:00 262.8 0.0 0.00 66.2 19.0 73.22 3.6
2018 05 19 24:00 262.7 0.0 0.00 66.5 19.1 73.91 3.2
2018 05 20 1:00 263.2 0.0 0.00 66.7 19.3 80.6 5.6
2018 05 20 2:00 263.2 0.0 0.00 68.1 20.0 82.4 4.6
2018 05 20 3:00 264.0 0.0 0.00 66.9 19.4 84.7 1.9
2018 05 20 4:00 264.5 0.0 0.00 66.5 19.1 88 4.0
2018 05 20 5:00 264.1 0.0 0.00 67.1 19.5 86.3 5.4
2018 05 20 6:00 Wet 391.3 0.2 4.32 64.0 17.8 90.7 11.6
2018 05 20 7:00 Wet 428.3 0.0 1.02 61.1 16.1 99.8 7.4
2018 05 20 8:00 Wet 318.9 0.0 0.51 62.0 16.6 99.8 2.7
2018 05 20 9:00 268.7 0.0 0.00 63.7 17.6 99.8 5.4
2018 05 20 10:00 262.3 0.0 0.00 68.1 20.1 84.1 5.6
2018 05 20 11:00 261.7 0.0 0.00 70.4 21.3 77.08 7.6
2018 05 20 12:00 261.2 0.0 0.00 72.6 22.5 74.81 7.6
2018 05 20 13:00 260.6 0.0 0.00 75.1 23.9 71.7 7.1
2018 05 20 14:00 260.3 0.0 0.00 76.8 24.9 69.7 6.9
2018 05 20 15:00 259.8 0.0 0.00 78.1 25.6 67.84 4.3
2018 05 20 16:00 260.4 0.0 0.00 77.8 25.4 67.51 1.2
2018 05 20 17:00 268.2 0.0 0.00 71.6 22.0 73.51 3.6
2018 05 20 18:00 280.4 0.0 0.00 69.0 20.5 79.54 3.0
2018 05 20 19:00 263.3 0.0 0.00 68.2 20.1 88.7 2.2
2018 05 20 20:00 263.9 0.0 0.00 66.8 19.3 99.9 1.7
2018 05 20 21:00 264.5 0.0 0.00 66.3 19.0 99.9 2.9
2018 05 20 22:00 267.1 0.0 0.00 65.4 18.6 99.9 1.1
2018 05 20 23:00 281.9 0.0 0.00 64.5 18.1 99.8 0.0
2018 05 20 24:00 Wet 293.5 0.0 0.00 63.2 17.3 99.8 0.9
2018 05 21 1:00 Wet 293.9 0.0 0.00 64.9 18.3 99.8 2.1
2018 05 21 2:00 Wet 290.3 0.0 0.00 65.0 18.3 99.8 0.9
2018 05 21 3:00 Wet 305.3 0.0 0.00 64.0 17.8 99.8 0.7
2018 05 21 4:00 Wet 319.3 0.0 0.00 64.0 17.8 99.8 0.1
2018 05 21 5:00 Wet 323.3 0.0 0.00 64.6 18.1 99.8 1.9
2018 05 21 6:00 Wet 317.5 0.0 0.00 64.0 17.8 99.8 1.7
2018 05 21 7:00 Wet 296.5 0.0 0.00 63.9 17.7 99.8 1.7
2018 05 21 8:00 277.4 0.0 0.00 64.3 17.9 99.9 1.2
2018 05 21 9:00 264.9 0.0 0.00 65.3 18.5 99.9 0.6
2018 05 21 10:00 262.7 0.0 0.00 68.1 20.1 89.1 4.6
2018 05 21 11:00 262.0 0.0 0.00 70.0 21.1 79.52 7.3
2018 05 21 12:00 261.1 0.0 0.00 73.8 23.2 69.56 7.7
2018 05 21 13:00 260.1 0.0 0.00 76.2 24.5 63.67 5.5
2018 05 21 14:00 259.8 0.0 0.00 77.0 25.0 59.88 6.2
2018 05 21 15:00 259.4 0.0 0.00 78.6 25.9 56.62 5.4
2018 05 21 16:00 258.9 0.0 0.00 78.9 26.0 52.84 4.8
2018 05 21 17:00 258.5 0.0 0.00 78.9 26.1 50.1 4.2
2018 05 21 18:00 258.3 0.0 0.00 78.8 26.0 51.43 1.6
2018 05 21 19:00 259.5 0.0 0.00 77.5 25.3 54.38 0.3
2018 05 21 20:00 262.2 0.0 0.00 72.3 22.4 67.2 0.3
2018 05 21 21:00 265.3 0.0 0.00 68.4 20.2 79.34 0.0
2018 05 21 22:00 274.3 0.0 0.00 64.5 18.0 96 0.0
2018 05 21 23:00 Wet 291.1 0.0 0.00 62.3 16.8 99.8 0.0
2018 05 21 24:00 Wet 313.1 0.0 0.00 61.2 16.2 99.9 0.0
2018 05 22 1:00 Wet 329.3 0.0 0.00 60.2 15.7 99.9 0.2
2018 05 22 2:00 Wet 342.6 0.0 0.00 59.2 15.1 99.9 0.1
2018 05 22 3:00 Wet 354.1 0.0 0.00 59.0 15.0 99.9 0.0
2018 05 22 4:00 Wet 357.3 0.0 0.00 58.3 14.6 99.9 0.8
2018 05 22 5:00 Wet 362.6 0.0 0.00 58.0 14.5 99.9 0.0
2018 05 22 6:00 Wet 354.1 0.0 0.00 58.3 14.6 99.9 0.0
2018 05 22 7:00 Wet 298.5 0.0 0.00 62.9 17.2 99.6 0.3
2018 05 22 8:00 263.2 0.0 0.00 70.9 21.6 82.3 0.6
2018 05 22 9:00 260.3 0.0 0.00 76.1 24.5 73.57 2.1
2018 05 22 10:00 260.5 0.0 0.00 78.5 25.8 65.63 2.4
2018 05 22 11:00 259.8 0.0 0.00 80.5 26.9 57.99 2.3
2018 05 22 12:00 259.4 0.0 0.00 81.4 27.4 53.99 2.8
2018 05 22 13:00 258.9 0.0 0.00 82.7 28.2 51.21 2.4
2018 05 22 14:00 258.2 0.0 0.00 83.9 28.8 49.45 3.7
2018 05 22 15:00 258.0 0.0 0.00 84.7 29.3 47.73 3.6
2018 05 22 16:00 258.1 0.0 0.00 83.9 28.8 48.71 3.8
2018 05 22 17:00 258.6 0.0 0.00 83.1 28.4 52.86 3.8
2018 05 22 18:00 259.3 0.0 0.00 80.5 27.0 59.9 3.5
2018 05 22 19:00 259.9 0.0 0.00 78.5 25.8 62.32 3.6
2018 05 22 20:00 261.3 0.0 0.00 74.1 23.4 65.23 3.3
2018 05 22 21:00 262.1 0.0 0.00 71.8 22.1 73.98 3.1
2018 05 22 22:00 263.8 0.0 0.00 71.0 21.6 78.99 0.7
2018 05 22 23:00 267.7 0.0 0.00 68.5 20.3 87.2 0.0
2018 05 22 24:00 273.3 0.0 0.00 66.5 19.2 99.8 0.3
2018 05 23 1:00 Wet 284.3 0.0 0.00 65.5 18.6 99.8 1.4
2018 05 23 2:00 Wet 299.1 0.0 0.00 64.8 18.2 99.8 0.0
2018 05 23 3:00 Wet 318.3 0.0 0.00 63.4 17.4 99.8 0.4
2018 05 23 4:00 Wet 338.9 0.0 0.00 62.4 16.9 99.8 0.9
2018 05 23 5:00 Wet 353.3 0.0 0.00 62.3 16.9 99.8 2.6
2018 05 23 6:00 Wet 350.8 0.0 0.00 63.0 17.2 99.8 0.4
2018 05 23 7:00 Wet 294.6 0.0 0.00 66.3 19.0 99.8 2.7
2018 05 23 8:00 262.5 0.0 0.00 72.0 22.2 84.6 5.1
2018 05 23 9:00 260.7 0.0 0.00 76.1 24.5 73.52 5.3
2018 05 23 10:00 260.5 0.0 0.00 77.5 25.3 66.46 4.6
2018 05 23 11:00 259.8 0.0 0.00 80.0 26.6 60.59 4.9
2018 05 23 12:00 259.2 0.0 0.00 81.1 27.3 57.47 4.5
2018 05 23 13:00 258.3 0.0 0.00 82.5 28.0 54.08 3.8
2018 05 23 14:00 258.5 0.0 0.00 82.6 28.1 54.39 5.0
2018 05 23 15:00 261.8 0.0 0.00 74.5 23.6 74.91 9.5
2018 05 23 16:00 261.6 0.0 0.00 71.9 22.1 78.31 8.7
2018 05 23 17:00 262.2 0.0 0.00 70.6 21.4 80.6 5.5
2018 05 23 18:00 262.8 0.0 0.00 70.1 21.2 84.6 4.2
2018 05 23 19:00 263.4 0.0 0.00 69.5 20.8 92.7 5.2
2018 05 23 20:00 263.8 0.0 0.00 68.8 20.4 88.5 5.8
2018 05 23 21:00 264.7 0.0 0.00 67.8 19.9 94.6 6.4
2018 05 23 22:00 271.8 0.0 0.00 66.6 19.2 99.9 0.6
2018 05 23 23:00 Wet 292.7 0.0 0.00 64.7 18.1 99.8 0.1
2018 05 23 24:00 Wet 302.5 0.0 0.00 64.1 17.8 99.8 2.1
2018 05 24 1:00 Wet 309.9 0.0 0.00 65.0 18.3 99.8 3.3
2018 05 24 2:00 Wet 305.5 0.0 0.00 65.5 18.6 99.8 5.0
2018 05 24 3:00 Wet 305.3 0.0 0.00 64.5 18.0 99.8 3.2
2018 05 24 4:00 Wet 300.5 0.0 0.00 64.3 17.9 99.8 0.5
2018 05 24 5:00 Wet 301.9 0.0 0.00 63.3 17.4 99.8 0.9
2018 05 24 6:00 Wet 307.4 0.0 0.00 62.9 17.2 99.8 1.4
2018 05 24 7:00 281.0 0.0 0.00 66.6 19.2 95.7 3.5
2018 05 24 8:00 262.1 0.0 0.00 71.3 21.8 80.3 6.3
2018 05 24 9:00 261.7 0.0 0.00 73.0 22.8 76.85 5.1
2018 05 24 10:00 261.1 0.0 0.00 76.3 24.6 69.44 3.4
2018 05 24 11:00 260.1 0.0 0.00 78.7 26.0 63.59 3.6
2018 05 24 12:00 259.4 0.0 0.00 80.5 26.9 59.9 3.5
2018 05 24 13:00 258.8 0.0 0.00 81.1 27.3 58.88 4.0
2018 05 24 14:00 259.2 0.0 0.00 80.7 27.1 60.34 5.7
2018 05 24 15:00 260.3 0.0 0.00 77.2 25.1 70.32 6.7
2018 05 24 16:00 259.0 0.0 0.00 79.8 26.6 60.27 7.9
2018 05 24 17:00 259.7 0.0 0.00 77.2 25.1 59.22 5.5
2018 05 24 18:00 260.6 0.0 0.00 75.6 24.2 67.25 4.2
2018 05 24 19:00 261.6 0.0 0.00 74.0 23.3 74.69 2.9
2018 05 24 20:00 263.2 0.0 0.00 71.5 21.9 82.6 2.5
2018 05 24 21:00 266.1 0.0 0.00 70.3 21.3 90.1 0.6
2018 05 24 22:00 268.9 0.0 0.00 68.6 20.3 99.7 1.3
2018 05 24 23:00 270.6 0.0 0.00 67.7 19.8 97.8 0.5
2018 05 24 24:00 268.2 0.0 0.00 67.4 19.7 99.9 1.9
2018 05 25 1:00 269.1 0.0 0.00 67.2 19.6 99.9 1.7
2018 05 25 2:00 270.2 0.0 0.00 66.1 18.9 99.8 1.6
2018 05 25 3:00 268.1 0.0 0.00 66.4 19.1 99.8 4.7
2018 05 25 4:00 266.3 0.0 0.00 67.3 19.6 94.5 3.3
2018 05 25 5:00 265.3 0.0 0.00 67.5 19.7 86.2 2.9
2018 05 25 6:00 265.1 0.0 0.00 67.6 19.8 88.4 1.6
2018 05 25 7:00 280.0 0.1 1.52 68.8 20.4 89.8 5.7
2018 05 25 8:00 272.3 0.0 0.25 70.2 21.2 86.5 8.7
2018 05 25 9:00 263.5 0.0 0.00 70.9 21.6 84.8 4.8
2018 05 25 10:00 261.9 0.0 0.00 74.6 23.7 77.88 5.4
2018 05 25 11:00 261.6 0.0 0.00 78.6 25.9 70.42 7.1
2018 05 25 12:00 260.1 0.0 0.00 81.8 27.7 54.67 9.1
2018 05 25 13:00 259.5 0.0 0.00 82.6 28.1 53.03 8.7
2018 05 25 14:00 259.0 0.0 0.00 84.0 28.9 52.26 8.2
2018 05 25 15:00 258.9 0.0 0.00 84.3 29.1 53.33 9.0
2018 05 25 16:00 258.6 0.0 0.00 84.4 29.1 49.22 9.9
2018 05 25 17:00 Wet 332.0 0.2 3.81 77.6 25.3 62.63 8.3
2018 05 25 18:00 Wet 319.4 0.0 0.51 70.5 21.4 90.9 2.3
2018 05 25 19:00 267.4 0.0 0.00 72.5 22.5 91.2 1.4
2018 05 25 20:00 271.3 0.0 0.00 69.2 20.7 99.8 2.7
2018 05 25 21:00 275.7 0.0 0.00 67.9 19.9 99.9 4.6
2018 05 25 22:00 271.9 0.0 0.00 67.0 19.4 99.9 4.0
2018 05 25 23:00 275.1 0.0 0.00 66.1 18.9 99.9 3.4
2018 05 25 24:00 283.5 0.0 0.00 65.3 18.5 99.8 1.0
2018 05 26 1:00 Wet 294.2 0.0 0.00 64.4 18.0 99.8 0.0
2018 05 26 2:00 Wet 308.4 0.0 0.00 63.3 17.4 99.8 0.0
2018 05 26 3:00 Wet 327.8 0.0 0.00 62.3 16.8 99.8 0.1
2018 05 26 4:00 Wet 347.2 0.0 0.00 62.3 16.8 99.9 0.0
2018 05 26 5:00 Wet 353.6 0.0 0.00 61.6 16.4 99.9 0.0
2018 05 26 6:00 Wet 358.3 0.0 0.00 61.8 16.5 99.9 0.0
2018 05 26 7:00 Wet 314.6 0.0 0.00 65.4 18.6 99.8 0.4
2018 05 26 8:00 266.5 0.0 0.00 71.3 21.8 87.5 4.2
2018 05 26 9:00 261.1 0.0 0.00 75.1 24.0 74.98 2.5
2018 05 26 10:00 261.1 0.0 0.00 79.1 26.1 63.74 2.4
2018 05 26 11:00 260.8 0.0 0.00 82.5 28.1 57.33 3.6
2018 05 26 12:00 260.0 0.0 0.00 84.0 28.9 55.07 2.2
2018 05 26 13:00 258.9 0.0 0.00 85.4 29.6 49.92 3.5
2018 05 26 14:00 258.3 0.0 0.00 86.4 30.2 46.69 2.0
2018 05 26 15:00 257.9 0.0 0.00 87.2 30.6 44.63 2.5
2018 05 26 16:00 257.4 0.0 0.00 87.7 31.0 45.13 2.1
2018 05 26 17:00 257.3 0.0 0.00 86.8 30.5 47.4 3.6
2018 05 26 18:00 257.3 0.0 0.00 86.6 30.4 45.81 1.3
2018 05 26 19:00 258.9 0.0 0.00 84.8 29.3 53.49 0.3
2018 05 26 20:00 261.4 0.0 0.00 79.4 26.3 64.47 2.2
2018 05 26 21:00 263.5 0.0 0.00 75.2 24.0 75.22 0.3
2018 05 26 22:00 266.3 0.0 0.00 73.2 22.9 80.2 0.1
2018 05 26 23:00 267.1 0.0 0.00 71.5 21.9 83.9 0.5
2018 05 26 24:00 267.7 0.0 0.00 70.5 21.4 85.8 0.8
2018 05 27 1:00 277.0 0.0 0.00 67.7 19.8 99.8 1.0
2018 05 27 2:00 Wet 286.8 0.0 0.00 67.1 19.5 99.8 0.5
2018 05 27 3:00 Wet 296.7 0.0 0.00 66.3 19.1 99.8 1.3
2018 05 27 4:00 Wet 306.4 0.0 0.00 66.6 19.2 99.8 1.6
2018 05 27 5:00 Wet 317.6 0.0 0.00 65.4 18.6 99.8 1.5
2018 05 27 6:00 Wet 323.5 0.0 0.00 65.3 18.5 99.8 0.7
2018 05 27 7:00 274.9 0.0 0.00 70.8 21.6 91.5 0.1
2018 05 27 8:00 260.8 0.0 0.00 76.0 24.4 77.21 0.9
2018 05 27 9:00 260.1 0.0 0.00 80.1 26.7 66.85 3.6
2018 05 27 10:00 260.0 0.0 0.00 82.8 28.2 58.49 2.8
2018 05 27 11:00 259.9 0.0 0.00 84.3 29.1 54.52 4.3
2018 05 27 12:00 259.1 0.0 0.00 85.6 29.8 49.16 4.5
2018 05 27 13:00 258.3 0.0 0.00 86.7 30.4 48.06 3.6
2018 05 27 14:00 257.7 0.0 0.00 87.7 31.0 42.96 4.8
2018 05 27 15:00 257.1 0.0 0.00 88.5 31.4 39.87 2.9
2018 05 27 16:00 256.9 0.0 0.00 88.3 31.3 43.04 3.2
2018 05 27 17:00 257.1 0.0 0.00 87.6 30.9 45.13 2.9
2018 05 27 18:00 257.4 0.0 0.00 86.6 30.3 48.49 3.1
2018 05 27 19:00 259.5 0.0 0.00 83.4 28.6 57.09 0.7
2018 05 27 20:00 261.5 0.0 0.00 79.2 26.2 65.91 0.9
2018 05 27 21:00 262.8 0.0 0.00 76.0 24.4 70.41 0.2
2018 05 27 22:00 265.4 0.0 0.00 72.7 22.6 80.4 0.2
2018 05 27 23:00 266.7 0.0 0.00 71.4 21.9 83.4 0.4
2018 05 27 24:00 270.7 0.0 0.00 68.9 20.5 96.2 1.4
2018 05 28 1:00 Wet 285.6 0.0 0.00 67.6 19.8 99.8 1.1
2018 05 28 2:00 Wet 300.3 0.0 0.00 66.7 19.3 99.8 0.1
2018 05 28 3:00 Wet 309.8 0.0 0.00 66.1 19.0 99.8 0.2
2018 05 28 4:00 Wet 322.9 0.0 0.00 65.4 18.6 99.8 0.0
2018 05 28 5:00 Wet 339.6 0.0 0.00 64.5 18.0 99.8 0.0
2018 05 28 6:00 Wet 333.7 0.0 0.00 64.9 18.3 99.8 0.0
2018 05 28 7:00 Wet 285.0 0.0 0.00 70.0 21.1 98.2 0.0
2018 05 28 8:00 260.8 0.0 0.00 77.8 25.5 74.51 0.3
2018 05 28 9:00 259.5 0.0 0.00 81.8 27.7 63.5 1.7
2018 05 28 10:00 260.0 0.0 0.00 84.5 29.2 57.88 2.8
2018 05 28 11:00 259.5 0.0 0.00 85.1 29.5 56.76 3.3
2018 05 28 12:00 258.9 0.0 0.00 86.2 30.1 53.38 3.7
2018 05 28 13:00 258.3 0.0 0.00 86.5 30.3 52.67 3.8
2018 05 28 14:00 264.8 0.0 0.00 86.6 30.4 50.2 5.3
2018 05 28 15:00 273.2 0.0 0.00 79.1 26.2 64.96 9.6
2018 05 28 16:00 259.1 0.0 0.00 78.6 25.9 61.08 6.1
2018 05 28 17:00 257.7 0.0 0.00 83.9 28.9 53.87 4.0
2018 05 28 18:00 258.5 0.0 0.00 83.4 28.6 60.01 2.5
2018 05 28 19:00 259.8 0.0 0.00 81.8 27.6 66.33 1.1
2018 05 28 20:00 262.4 0.0 0.00 77.8 25.5 75.63 0.9
2018 05 28 21:00 265.2 0.0 0.00 74.4 23.6 82.3 1.3
2018 05 28 22:00 272.8 0.0 0.00 71.6 22.0 97.3 1.1
2018 05 28 23:00 Wet 288.7 0.0 0.00 70.0 21.1 99.8 0.3
2018 05 28 24:00 Wet 306.0 0.0 0.00 68.6 20.3 99.8 0.5
2018 05 29 1:00 Wet 321.7 0.0 0.00 66.9 19.4 99.8 1.3
2018 05 29 2:00 Wet 344.0 0.0 0.00 66.1 19.0 99.8 0.4
2018 05 29 3:00 Wet 357.9 0.0 0.00 65.5 18.6 99.8 0.0
2018 05 29 4:00 Wet 372.6 0.0 0.00 64.3 17.9 99.8 0.2
2018 05 29 5:00 Wet 383.6 0.0 0.00 63.1 17.3 99.8 0.6
2018 05 29 6:00 Wet 383.0 0.0 0.00 63.6 17.5 99.9 0.0
2018 05 29 7:00 Wet 320.9 0.0 0.00 68.7 20.4 99.1 0.4
2018 05 29 8:00 266.9 0.0 0.00 74.1 23.4 82.9 3.1
2018 05 29 9:00 261.0 0.0 0.00 79.9 26.6 67.35 3.1
2018 05 29 10:00 260.1 0.0 0.00 82.6 28.1 56.43 7.2
2018 05 29 11:00 259.2 0.0 0.00 83.8 28.8 54.03 8.7
2018 05 29 12:00 258.6 0.0 0.00 84.3 29.1 54.99 7.5
2018 05 29 13:00 257.8 0.0 0.00 85.6 29.8 50.8 5.2
2018 05 29 14:00 257.8 0.0 0.00 85.2 29.6 48.79 4.2
2018 05 29 15:00 256.9 0.0 0.00 86.8 30.5 43.55 3.8
2018 05 29 16:00 256.6 0.0 0.00 87.2 30.7 41.54 3.0
2018 05 29 17:00 256.5 0.0 0.00 87.1 30.6 42.79 3.1
2018 05 29 18:00 256.4 0.0 0.00 87.3 30.7 41.71 1.6
2018 05 29 19:00 258.3 0.0 0.00 83.1 28.4 51.76 2.0
2018 05 29 20:00 260.6 0.0 0.00 78.5 25.8 61.97 1.2
2018 05 29 21:00 262.3 0.0 0.00 76.0 24.4 67.65 0.2
2018 05 29 22:00 262.6 0.0 0.00 72.8 22.6 75.25 1.7
2018 05 29 23:00 264.6 0.0 0.00 71.1 21.7 78.75 0.7
2018 05 29 24:00 267.7 0.0 0.00 69.5 20.8 82.5 0.0
2018 05 30 1:00 269.2 0.0 0.00 68.1 20.0 86.4 6.7
2018 05 30 2:00 Wet 312.9 0.0 0.00 64.4 18.0 92.1 9.2
2018 05 30 3:00 268.4 0.0 0.00 63.5 17.5 99.7 3.5
2018 05 30 4:00 270.7 0.0 0.00 62.7 17.1 99.8 2.1
2018 05 30 5:00 276.8 0.0 0.00 61.7 16.5 99.8 0.3
2018 05 30 6:00 271.1 0.0 0.00 62.4 16.9 99.9 3.0
2018 05 30 7:00 264.0 0.0 0.00 64.7 18.2 95.4 4.6
2018 05 30 8:00 261.4 0.0 0.00 69.9 21.1 74.71 4.5
2018 05 30 9:00 260.0 0.0 0.00 73.7 23.2 63.78 4.7
2018 05 30 10:00 259.6 0.0 0.00 75.8 24.4 60.03 5.6
2018 05 30 11:00 259.6 0.0 0.00 79.1 26.2 54.45 5.4
2018 05 30 12:00 259.0 0.0 0.00 82.1 27.8 52.8 7.4
2018 05 30 13:00 258.4 0.0 0.00 83.4 28.6 54.08 6.3
2018 05 30 14:00 258.1 0.0 0.00 84.9 29.4 53.3 6.5
2018 05 30 15:00 258.1 0.0 0.00 86.3 30.2 51.99 8.3
2018 05 30 16:00 258.0 0.0 0.00 87.2 30.7 51.24 10.6
2018 05 30 17:00 258.0 0.0 0.00 86.6 30.3 53.6 9.0
2018 05 30 18:00 258.6 0.0 0.00 85.2 29.5 57.13 9.4
2018 05 30 19:00 259.5 0.0 0.00 83.3 28.5 61.9 5.7
2018 05 30 20:00 261.6 0.0 0.00 79.3 26.3 72.87 0.8
2018 05 30 21:00 263.2 0.0 0.00 76.7 24.8 79.12 1.5
2018 05 30 22:00 264.7 0.0 0.00 75.0 23.9 83.4 0.8
2018 05 30 23:00 266.6 0.0 0.00 72.8 22.6 99.7 0.4
2018 05 30 24:00 265.5 0.0 0.00 73.9 23.3 89.8 1.7
2018 05 31 1:00 265.6 0.0 0.00 73.8 23.2 88.8 1.8
2018 05 31 2:00 264.9 0.0 0.00 74.2 23.4 84.5 2.0
2018 05 31 3:00 263.8 0.0 0.00 74.9 23.8 82.8 4.8
2018 05 31 4:00 263.0 0.0 0.00 75.9 24.4 76.97 8.0
2018 05 31 5:00 262.5 0.0 0.00 72.4 22.5 75.09 15.2
2018 05 31 6:00 263.3 0.0 0.00 68.6 20.3 80.8 9.1
2018 05 31 7:00 263.9 0.0 0.00 68.9 20.5 74.99 8.5
2018 05 31 8:00 260.8 0.0 0.00 74.4 23.6 59.9 6.6
2018 05 31 9:00 259.8 0.0 0.00 78.7 25.9 57.86 6.8
2018 05 31 10:00 258.9 0.0 0.00 84.4 29.1 48.56 7.7
2018 05 31 11:00 258.9 0.0 0.00 85.1 29.5 50.67 9.3
2018 05 31 12:00 258.9 0.0 0.00 84.0 28.9 57.04 9.5
2018 05 31 13:00 259.6 0.0 0.00 82.4 28.0 62.56 7.0
2018 05 31 14:00 Wet 294.9 0.1 1.78 79.6 26.4 73.97 3.3
2018 05 31 15:00 260.5 0.0 0.00 80.8 27.1 71.44 2.9
2018 05 31 16:00 260.7 0.0 0.00 81.0 27.2 70.23 3.2
2018 05 31 17:00 260.1 0.0 0.00 81.9 27.7 68.24 1.9
2018 05 31 18:00 260.6 0.0 0.00 81.5 27.5 69.89 1.1
2018 05 31 19:00 260.8 0.0 0.00 82.2 27.9 69.99 1.0
2018 05 31 20:00 262.7 0.0 0.00 77.8 25.5 81.1 2.6
2018 05 31 21:00 265.9 0.0 0.25 76.1 24.5 84.7 3.4
2018 05 31 22:00 Wet 326.0 0.1 3.56 74.3 23.5 92.2 5.2
2018 05 31 23:00 Wet 470.9 1.0 25.65 66.9 19.4 99.8 3.9
2018 05 31 24:00 Wet 365.4 0.2 4.57 65.5 18.6 99.9 2.2
2018 06 01 1:00 Wet 316.4 0.0 0.00 66.0 18.9 99.8 1.1
2018 06 01 2:00 Wet 312.2 0.0 0.00 65.6 18.7 99.8 0.7
2018 06 01 3:00 Wet 312.9 0.0 0.00 64.9 18.3 99.8 0.9
2018 06 01 4:00 Wet 311.9 0.0 0.00 64.8 18.2 99.8 2.8
2018 06 01 5:00 Wet 309.0 0.0 0.25 64.6 18.1 99.8 0.4
2018 06 01 6:00 Wet 297.0 0.0 0.00 65.2 18.4 99.8 0.7
2018 06 01 7:00 268.9 0.0 0.00 69.3 20.7 99.9 1.5
2018 06 01 8:00 261.0 0.0 0.00 76.3 24.6 86.2 0.7
2018 06 01 9:00 260.3 0.0 0.00 80.5 26.9 78.06 1.8
2018 06 01 10:00 260.3 0.0 0.00 82.5 28.1 72.13 3.1
2018 06 01 11:00 260.0 0.0 0.00 84.9 29.4 66.19 1.7
2018 06 01 12:00 259.9 0.0 0.00 85.4 29.6 63.05 2.1
2018 06 01 13:00 259.4 0.0 0.00 86.6 30.3 60.36 4.0
2018 06 01 14:00 258.6 0.0 0.00 87.9 31.1 56.63 4.6
2018 06 01 15:00 258.4 0.0 0.00 88.6 31.4 54.66 5.3
2018 06 01 16:00 258.1 0.0 0.00 88.7 31.5 56 6.2
2018 06 01 17:00 257.9 0.0 0.00 88.4 31.4 57.2 6.4
2018 06 01 18:00 258.8 0.0 0.00 86.9 30.5 61.77 6.1
2018 06 01 19:00 260.5 0.0 0.00 84.1 29.0 69.29 4.4
2018 06 01 20:00 261.8 0.0 0.00 81.1 27.3 74.83 4.7
2018 06 01 21:00 262.3 0.0 0.00 79.2 26.2 78.42 5.8
2018 06 01 22:00 262.3 0.0 0.00 78.3 25.7 79.48 6.5
2018 06 01 23:00 262.7 0.0 0.00 77.1 25.1 81.2 7.0
2018 06 01 24:00 263.0 0.0 0.00 76.8 24.9 82.7 7.7
2018 06 02 1:00 263.5 0.0 0.00 76.2 24.5 86 6.7
2018 06 02 2:00 264.6 0.0 0.00 75.5 24.2 96.1 6.2
2018 06 02 3:00 269.6 0.0 0.00 74.2 23.4 99.8 3.6
2018 06 02 4:00 282.8 0.0 0.00 72.9 22.7 99.8 1.9
2018 06 02 5:00 Wet 290.1 0.0 0.00 73.3 22.9 99.8 1.1
2018 06 02 6:00 276.0 0.0 0.00 74.3 23.5 95.4 5.2
2018 06 02 7:00 262.4 0.0 0.00 77.6 25.3 79.55 5.8
2018 06 02 8:00 262.4 0.0 0.00 77.8 25.4 78.66 7.4
2018 06 02 9:00 262.2 0.0 0.00 78.1 25.6 80.7 4.4
2018 06 02 10:00 261.4 0.0 0.00 79.9 26.6 77.2 5.0
2018 06 02 11:00 261.2 0.0 0.00 81.1 27.3 73.31 3.2
2018 06 02 12:00 260.7 0.0 0.00 81.9 27.7 73.02 4.4
2018 06 02 13:00 259.9 0.0 0.00 83.6 28.7 68.82 5.5
2018 06 02 14:00 259.7 0.0 0.00 84.4 29.1 65.19 4.7
2018 06 02 15:00 262.3 0.0 0.00 83.3 28.5 69.3 7.9
2018 06 02 16:00 261.5 0.0 0.00 79.0 26.1 75.73 11.0
2018 06 02 17:00 261.3 0.0 0.00 77.4 25.2 72.06 11.9
2018 06 02 18:00 261.6 0.0 0.00 76.0 24.4 72.56 10.5
2018 06 02 19:00 261.6 0.0 0.00 75.1 23.9 68.7 9.5
2018 06 02 20:00 262.0 0.0 0.00 72.9 22.7 71.25 3.9
2018 06 02 21:00 263.9 0.0 0.00 70.8 21.5 78.04 0.3
2018 06 02 22:00 267.9 0.0 0.00 68.3 20.2 85.7 1.5
2018 06 02 23:00 263.9 0.0 0.00 68.7 20.4 81.5 6.7
2018 06 02 24:00 263.2 0.0 0.00 67.2 19.6 75.25 6.8
2018 06 03 1:00 263.3 0.0 0.00 64.8 18.2 75.02 5.4
2018 06 03 2:00 264.8 0.0 0.00 62.1 16.7 81.2 2.9
2018 06 03 3:00 277.6 0.0 0.00 60.4 15.8 83.6 0.3
2018 06 03 4:00 Wet 293.9 0.0 0.00 59.1 15.1 84.9 0.1
2018 06 03 5:00 Wet 310.5 0.0 0.00 57.4 14.1 92.7 1.1
2018 06 03 6:00 282.5 0.0 0.00 58.8 14.9 85.1 1.1
2018 06 03 7:00 261.9 0.0 0.00 62.8 17.1 77.93 3.0
2018 06 03 8:00 260.8 0.0 0.00 67.5 19.7 67.99 4.8
2018 06 03 9:00 259.9 0.0 0.00 72.6 22.5 54.34 5.7
2018 06 03 10:00 259.1 0.0 0.00 76.0 24.4 37.58 9.3
2018 06 03 11:00 258.7 0.0 0.00 77.4 25.2 33.16 9.3
2018 06 03 12:00 258.0 0.0 0.00 78.4 25.8 31.68 10.4
2018 06 03 13:00 257.6 0.0 0.00 79.3 26.3 31.71 9.6
2018 06 03 14:00 257.5 0.0 0.00 79.9 26.6 32.42 9.2
2018 06 03 15:00 257.5 0.0 0.00 80.0 26.6 33.66 8.9
2018 06 03 16:00 257.5 0.0 0.00 80.2 26.8 33.95 7.4
2018 06 03 17:00 257.3 0.0 0.00 80.0 26.6 34.12 6.8
2018 06 03 18:00 257.4 0.0 0.00 79.1 26.2 35.08 5.7
2018 06 03 19:00 258.4 0.0 0.00 76.7 24.8 41.88 2.0
2018 06 03 20:00 260.2 0.0 0.00 72.3 22.4 50.79 1.0
2018 06 03 21:00 264.9 0.0 0.00 65.7 18.7 69.32 1.1
2018 06 03 22:00 271.6 0.0 0.00 62.4 16.9 76.84 0.1
2018 06 03 23:00 283.0 0.0 0.00 59.8 15.4 85.6 1.0
2018 06 03 24:00 Wet 295.4 0.0 0.00 57.8 14.3 93.3 0.4
2018 06 04 1:00 Wet 315.7 0.0 0.00 56.0 13.3 99.9 0.8
2018 06 04 2:00 Wet 348.6 0.0 0.00 55.0 12.8 99.9 1.3
2018 06 04 3:00 Wet 361.4 0.0 0.00 55.0 12.8 99.9 0.6
2018 06 04 4:00 Wet 372.7 0.0 0.00 54.0 12.2 99.9 0.4
2018 06 04 5:00 Wet 389.2 0.0 0.00 53.3 11.8 99.9 0.0
2018 06 04 6:00 Wet 379.5 0.0 0.00 53.7 12.0 99.9 0.0
2018 06 04 7:00 Wet 310.1 0.0 0.00 60.0 15.6 90.2 0.0
2018 06 04 8:00 263.2 0.0 0.00 68.9 20.5 71.76 0.3
2018 06 04 9:00 259.3 0.0 0.00 73.2 22.9 55.34 2.9
2018 06 04 10:00 258.8 0.0 0.00 75.1 23.9 47.82 3.5
2018 06 04 11:00 258.3 0.0 0.00 76.0 24.5 44 4.3
2018 06 04 12:00 257.6 0.0 0.00 77.1 25.1 41.58 2.7
2018 06 04 13:00 257.3 0.0 0.00 77.6 25.4 41.69 1.7
2018 06 04 14:00 258.1 0.0 0.00 76.6 24.8 44.43 2.9
2018 06 04 15:00 257.9 0.0 0.00 76.9 24.9 44.51 3.1
2018 06 04 16:00 258.6 0.0 0.00 75.8 24.3 48.41 4.1
2018 06 04 17:00 259.1 0.0 0.00 74.5 23.6 54.41 4.3
2018 06 04 18:00 259.3 0.0 0.00 73.4 23.0 53.41 4.5
2018 06 04 19:00 259.6 0.0 0.00 73.5 23.0 54.98 1.5
2018 06 04 20:00 262.2 0.0 0.00 70.2 21.2 63.37 1.2
2018 06 04 21:00 264.8 0.0 0.00 66.6 19.2 71.78 2.1
2018 06 04 22:00 267.4 0.0 0.00 63.1 17.3 81.2 2.7
2018 06 04 23:00 269.4 0.0 0.00 61.6 16.4 88.8 2.3
2018 06 04 24:00 271.5 0.0 0.00 60.3 15.7 99.9 0.3
2018 06 05 1:00 276.0 0.0 0.00 60.2 15.7 95 3.0
2018 06 05 2:00 268.0 0.0 0.00 61.4 16.4 83.6 2.5
2018 06 05 3:00 267.2 0.0 0.00 60.9 16.1 84.3 1.0
2018 06 05 4:00 268.1 0.0 0.00 61.0 16.1 81.5 0.2
2018 06 05 5:00 268.1 0.0 0.00 60.1 15.6 82.9 2.0
2018 06 05 6:00 265.5 0.0 0.00 60.1 15.6 85.8 0.2
2018 06 05 7:00 261.7 0.0 0.00 64.5 18.1 79.41 1.8
2018 06 05 8:00 260.5 0.0 0.00 69.4 20.8 72.16 3.3
2018 06 05 9:00 259.5 0.0 0.00 73.8 23.2 62.6 1.9
2018 06 05 10:00 259.5 0.0 0.00 76.8 24.9 55.27 2.2
2018 06 05 11:00 259.6 0.0 0.00 79.2 26.2 51.14 4.1
2018 06 05 12:00 259.0 0.0 0.00 80.7 27.0 47.68 4.5
2018 06 05 13:00 258.3 0.0 0.00 81.9 27.7 45.23 4.5
2018 06 05 14:00 257.8 0.0 0.00 83.0 28.3 43.79 3.4
2018 06 05 15:00 257.5 0.0 0.00 83.3 28.5 44.05 2.0
2018 06 05 16:00 257.2 0.0 0.00 84.1 28.9 44.32 3.3
2018 06 05 17:00 256.9 0.0 0.00 84.5 29.1 42.87 3.3
2018 06 05 18:00 257.2 0.0 0.00 83.7 28.7 46.91 3.0
2018 06 05 19:00 259.2 0.0 0.00 81.3 27.4 55.45 1.8
2018 06 05 20:00 261.4 0.0 0.00 76.3 24.6 63.7 2.5
2018 06 05 21:00 262.8 0.0 0.00 72.7 22.6 69.64 2.5
2018 06 05 22:00 266.0 0.0 0.00 70.2 21.2 75.47 0.2
2018 06 05 23:00 267.6 0.0 0.00 68.7 20.4 79.15 0.0
2018 06 05 24:00 269.4 0.0 0.00 66.4 19.1 86.1 0.1
2018 06 06 1:00 279.8 0.0 0.00 64.4 18.0 99.2 0.0
2018 06 06 2:00 Wet 300.7 0.0 0.00 62.3 16.8 99.8 0.0
2018 06 06 3:00 Wet 320.2 0.0 0.00 61.6 16.5 99.9 0.2
2018 06 06 4:00 Wet 343.1 0.0 0.00 61.4 16.3 99.9 0.7
2018 06 06 5:00 Wet 351.7 0.0 0.00 61.1 16.2 99.9 0.9
2018 06 06 6:00 Wet 338.5 0.0 0.00 61.6 16.5 99.9 0.3
2018 06 06 7:00 Wet 284.8 0.0 0.00 66.7 19.3 88.3 0.3
2018 06 06 8:00 264.5 0.0 0.00 73.8 23.2 72.94 3.3
2018 06 06 9:00 260.2 0.0 0.00 77.9 25.5 65.16 5.4
2018 06 06 10:00 260.1 0.0 0.00 80.1 26.7 63.29 4.5
2018 06 06 11:00 259.6 0.0 0.00 82.1 27.8 59.29 3.1
2018 06 06 12:00 258.9 0.0 0.00 83.4 28.5 55.91 1.8
2018 06 06 13:00 258.2 0.0 0.00 84.6 29.2 51.78 2.3
2018 06 06 14:00 258.0 0.0 0.00 85.8 29.9 50 2.4
2018 06 06 15:00 257.6 0.0 0.00 86.9 30.5 48.03 1.4
2018 06 06 16:00 257.5 0.0 0.00 86.5 30.3 47.96 2.7
2018 06 06 17:00 257.1 0.0 0.00 86.5 30.3 45.29 3.7
2018 06 06 18:00 257.3 0.0 0.00 85.6 29.8 47.65 3.9
2018 06 06 19:00 259.1 0.0 0.00 83.2 28.4 56.34 2.8
2018 06 06 20:00 261.2 0.0 0.00 78.1 25.6 66.75 3.4
2018 06 06 21:00 262.4 0.0 0.00 75.1 23.9 72.19 2.8
2018 06 06 22:00 263.4 0.0 0.00 72.9 22.7 77.71 2.4
2018 06 06 23:00 264.8 0.0 0.00 71.6 22.0 80.5 1.0
2018 06 06 24:00 265.4 0.0 0.00 70.8 21.5 82.7 2.7
2018 06 07 1:00 267.0 0.0 0.00 69.9 21.1 84.5 0.2
2018 06 07 2:00 268.8 0.0 0.00 68.1 20.1 96.6 0.2
2018 06 07 3:00 278.0 0.0 0.00 67.2 19.5 99.8 0.7
2018 06 07 4:00 Wet 284.0 0.0 0.00 66.3 19.1 99.8 2.5
2018 06 07 5:00 267.8 0.0 0.00 68.7 20.4 81.4 1.5
2018 06 07 6:00 265.6 0.0 0.00 66.7 19.3 94.5 0.7
2018 06 07 7:00 261.6 0.0 0.00 71.4 21.9 80.6 1.1
2018 06 07 8:00 259.8 0.0 0.00 78.0 25.5 62.55 3.9
2018 06 07 9:00 259.2 0.0 0.00 80.9 27.2 55.24 5.7
2018 06 07 10:00 258.8 0.0 0.00 82.8 28.2 50.79 4.2
2018 06 07 11:00 258.3 0.0 0.00 84.8 29.3 46.23 8.0
2018 06 07 12:00 258.1 0.0 0.00 85.9 29.9 45.59 9.8
2018 06 07 13:00 258.5 0.0 0.00 84.6 29.2 51.57 11.8
2018 06 07 14:00 258.5 0.0 0.00 84.4 29.1 49.47 12.3
2018 06 07 15:00 257.5 0.0 0.00 85.6 29.8 47.16 10.9
2018 06 07 16:00 257.6 0.0 0.00 84.5 29.1 50.88 11.5
2018 06 07 17:00 257.9 0.0 0.00 84.6 29.2 51.6 5.2
2018 06 07 18:00 258.8 0.0 0.00 82.9 28.3 54.24 5.1
2018 06 07 19:00 259.9 0.0 0.00 79.6 26.5 63.88 1.7
2018 06 07 20:00 261.9 0.0 0.00 76.9 25.0 72.35 1.1
2018 06 07 21:00 263.1 0.0 0.00 74.5 23.6 80.1 1.2
2018 06 07 22:00 265.6 0.0 0.00 73.4 23.0 81.6 0.1
2018 06 07 23:00 266.2 0.0 0.00 70.7 21.5 90.4 0.8
2018 06 07 24:00 266.2 0.0 0.00 69.1 20.6 99.8 1.2
2018 06 08 1:00 274.1 0.0 0.00 68.0 20.0 99.8 1.0
2018 06 08 2:00 283.0 0.0 0.00 67.0 19.4 99.8 0.9
2018 06 08 3:00 Wet 288.3 0.0 0.00 66.4 19.1 99.8 1.7
2018 06 08 4:00 Wet 289.8 0.0 0.00 66.4 19.1 95.6 0.8
2018 06 08 5:00 Wet 294.0 0.0 0.00 66.5 19.2 95.5 0.1
2018 06 08 6:00 Wet 296.5 0.0 0.00 65.3 18.5 99.7 0.4
2018 06 08 7:00 269.6 0.0 0.00 69.4 20.8 89.1 2.8
2018 06 08 8:00 261.7 0.0 0.00 74.0 23.3 74.32 4.9
2018 06 08 9:00 260.2 0.0 0.00 77.6 25.3 63.79 7.2
2018 06 08 10:00 259.6 0.0 0.00 80.3 26.8 57.77 7.4
2018 06 08 11:00 259.4 0.0 0.00 82.5 28.1 54.38 9.2
2018 06 08 12:00 258.9 0.0 0.00 83.8 28.8 54.32 8.0
2018 06 08 13:00 258.3 0.0 0.00 85.4 29.7 51.96 5.1
2018 06 08 14:00 257.4 0.0 0.00 87.5 30.9 46.76 3.2
2018 06 08 15:00 257.3 0.0 0.00 87.9 31.1 46.97 4.0
2018 06 08 16:00 257.2 0.0 0.00 87.8 31.0 51.76 6.1
2018 06 08 17:00 257.4 0.0 0.00 87.4 30.8 52.66 6.0
2018 06 08 18:00 258.6 0.0 0.00 85.5 29.7 58 3.5
2018 06 08 19:00 259.5 0.0 0.00 84.2 29.0 61.3 3.3
2018 06 08 20:00 260.4 0.0 0.00 82.0 27.8 65.29 2.1
2018 06 08 21:00 261.6 0.0 0.00 79.8 26.6 67.48 2.5
2018 06 08 22:00 262.3 0.0 0.00 76.5 24.7 74.2 1.5
2018 06 08 23:00 262.3 0.0 0.00 75.8 24.4 77.01 3.6
2018 06 08 24:00 261.8 0.0 0.00 75.4 24.1 72.35 6.3
2018 06 09 1:00 262.1 0.0 0.00 73.3 22.9 73.48 3.9
2018 06 09 2:00 262.4 0.0 0.00 71.8 22.1 74.08 3.1
2018 06 09 3:00 263.2 0.0 0.00 70.0 21.1 77.38 0.3
2018 06 09 4:00 265.7 0.0 0.00 67.8 19.9 83.1 1.1
2018 06 09 5:00 266.1 0.0 0.00 67.3 19.6 81.8 0.1
2018 06 09 6:00 265.1 0.0 0.00 67.3 19.6 84.5 0.4
2018 06 09 7:00 262.1 0.0 0.00 71.4 21.9 76.13 0.9
2018 06 09 8:00 259.9 0.0 0.00 77.9 25.5 58.83 7.0
2018 06 09 9:00 259.6 0.0 0.00 79.7 26.5 57.68 8.2
2018 06 09 10:00 259.2 0.0 0.00 82.6 28.1 54.23 10.2
2018 06 09 11:00 258.8 0.0 0.00 85.3 29.6 50.41 9.7
2018 06 09 12:00 258.5 0.0 0.00 87.0 30.5 48.86 10.1
2018 06 09 13:00 257.9 0.0 0.00 88.2 31.2 48.07 9.9
2018 06 09 14:00 257.6 0.0 0.00 89.3 31.8 46.86 9.7
2018 06 09 15:00 257.1 0.0 0.00 89.8 32.1 44.94 9.3
2018 06 09 16:00 256.8 0.0 0.00 90.2 32.4 43.84 11.1
2018 06 09 17:00 257.2 0.0 0.00 88.7 31.5 46.69 10.4
2018 06 09 18:00 257.4 0.0 0.00 87.9 31.0 45.93 10.3
2018 06 09 19:00 258.2 0.0 0.00 85.5 29.7 48.89 6.2
2018 06 09 20:00 259.8 0.0 0.00 80.6 27.0 59.69 2.8
2018 06 09 21:00 261.2 0.0 0.00 77.8 25.4 66.95 2.6
2018 06 09 22:00 261.7 0.0 0.00 75.7 24.3 70.06 3.3
2018 06 09 23:00 261.7 0.0 0.00 75.2 24.0 71.72 4.5
2018 06 09 24:00 262.2 0.0 0.00 74.2 23.4 75.23 3.1
2018 06 10 1:00 261.7 0.0 0.00 74.7 23.7 74.44 6.2
2018 06 10 2:00 262.1 0.0 0.00 73.5 23.0 76.46 5.5
2018 06 10 3:00 262.9 0.0 0.00 71.8 22.1 79.11 2.5
2018 06 10 4:00 263.3 0.0 0.00 71.3 21.9 79.02 2.6
2018 06 10 5:00 263.5 0.0 0.00 70.8 21.6 79.07 3.6
2018 06 10 6:00 262.5 0.0 0.00 71.3 21.8 78.25 3.9
2018 06 10 7:00 261.1 0.0 0.00 75.0 23.9 69.9 8.2
2018 06 10 8:00 260.0 0.0 0.00 78.4 25.8 62.5 11.4
2018 06 10 9:00 259.6 0.0 0.00 81.2 27.3 58.22 13.3
2018 06 10 10:00 259.1 0.0 0.00 83.9 28.8 52.6 13.0
2018 06 10 11:00 258.8 0.0 0.00 86.2 30.1 47.13 13.1
2018 06 10 12:00 258.2 0.0 0.00 87.7 30.9 43.89 12.7
2018 06 10 13:00 257.6 0.0 0.00 88.6 31.5 42.17 11.3
2018 06 10 14:00 257.2 0.0 0.00 89.6 32.0 40.63 10.7
2018 06 10 15:00 256.7 0.0 0.00 90.0 32.2 39.08 10.0
2018 06 10 16:00 256.2 0.0 0.00 90.3 32.4 37.59 9.3
2018 06 10 17:00 256.1 0.0 0.00 89.9 32.2 36.65 9.7
2018 06 10 18:00 256.5 0.0 0.00 88.3 31.3 38.88 9.0
2018 06 10 19:00 257.8 0.0 0.00 84.9 29.4 47.03 5.2
2018 06 10 20:00 259.4 0.0 0.00 80.0 26.7 57.07 3.7
2018 06 10 21:00 260.3 0.0 0.00 76.9 24.9 63.5 4.1
2018 06 10 22:00 260.9 0.0 0.00 75.3 24.0 66.84 3.1
2018 06 10 23:00 262.1 0.0 0.00 72.5 22.5 73.24 2.6
2018 06 10 24:00 261.7 0.0 0.00 73.6 23.1 69.05 4.5
2018 06 11 1:00 261.7 0.0 0.00 73.9 23.3 69.73 4.3
2018 06 11 2:00 261.7 0.0 0.00 72.6 22.6 74.11 4.8
2018 06 11 3:00 262.2 0.0 0.00 71.9 22.2 77.55 5.1
2018 06 11 4:00 262.9 0.0 0.00 70.8 21.5 81.5 4.2
2018 06 11 5:00 265.6 0.0 0.00 69.3 20.7 85.7 2.8
2018 06 11 6:00 264.4 0.0 0.00 70.0 21.1 85.1 3.1
2018 06 11 7:00 261.4 0.0 0.00 75.1 23.9 74.7 6.9
2018 06 11 8:00 260.2 0.0 0.00 78.8 26.0 67.14 10.3
2018 06 11 9:00 259.6 0.0 0.00 82.0 27.8 61.19 11.4
2018 06 11 10:00 259.2 0.0 0.00 84.3 29.1 58.92 8.3
2018 06 11 11:00 258.9 0.0 0.00 86.5 30.3 55.79 6.8
2018 06 11 12:00 258.4 0.0 0.00 88.4 31.3 51.71 7.8
2018 06 11 13:00 257.7 0.0 0.00 90.0 32.2 48.2 9.6
2018 06 11 14:00 257.1 0.0 0.00 91.3 32.9 46.54 8.5
2018 06 11 15:00 257.0 0.0 0.00 91.5 33.0 44.24 9.3
2018 06 11 16:00 256.5 0.0 0.00 91.2 32.9 46.12 9.1
2018 06 11 17:00 256.0 0.0 0.00 90.9 32.7 49.35 7.3
2018 06 11 18:00 256.9 0.0 0.00 89.6 32.0 49.49 7.7
2018 06 11 19:00 258.0 0.0 0.00 88.0 31.1 53.67 6.1
2018 06 11 20:00 259.5 0.0 0.00 84.0 28.9 63.16 3.8
2018 06 11 21:00 260.9 0.0 0.00 80.4 26.9 71.22 2.7
2018 06 11 22:00 262.4 0.0 0.00 77.9 25.5 77.38 2.4
2018 06 11 23:00 262.5 0.0 0.00 77.3 25.2 79.92 4.9
2018 06 11 24:00 262.3 0.0 0.00 77.4 25.2 78.27 4.4
2018 06 12 1:00 262.8 0.0 0.00 75.8 24.3 81.6 3.6
2018 06 12 2:00 262.6 0.0 0.00 76.1 24.5 81.2 4.9
2018 06 12 3:00 263.2 0.0 0.00 74.7 23.7 82.7 5.7
2018 06 12 4:00 Wet 367.6 0.1 1.78 66.8 19.3 92.4 9.5
2018 06 12 5:00 Wet 311.9 0.0 0.25 65.6 18.7 99.8 2.3
2018 06 12 6:00 Wet 340.6 0.1 2.54 65.5 18.6 99.8 4.6
2018 06 12 7:00 Wet 332.9 0.1 1.78 65.5 18.6 98.2 13.2
2018 06 12 8:00 263.3 0.0 0.00 71.4 21.9 65.62 15.2
2018 06 12 9:00 261.8 0.0 0.00 72.4 22.4 66.81 9.7
2018 06 12 10:00 261.5 0.0 0.00 71.2 21.8 74.37 8.4
2018 06 12 11:00 260.2 0.0 0.00 73.1 22.9 70.38 3.7
2018 06 12 12:00 259.3 0.0 0.00 76.4 24.7 65.52 2.8
2018 06 12 13:00 259.2 0.0 0.00 78.2 25.6 65.44 4.3
2018 06 12 14:00 259.3 0.0 0.00 79.3 26.3 64.43 3.5
2018 06 12 15:00 258.7 0.0 0.00 82.2 27.9 59.05 2.6
2018 06 12 16:00 257.7 0.0 0.00 84.1 28.9 55.38 2.5
2018 06 12 17:00 258.9 0.0 0.00 82.6 28.1 58.5 3.3
2018 06 12 18:00 258.6 0.0 0.00 83.0 28.3 58.04 1.3
2018 06 12 19:00 260.2 0.0 0.00 80.5 26.9 67.97 2.0
2018 06 12 20:00 262.8 0.0 0.00 77.7 25.4 75.23 0.2
2018 06 12 21:00 264.4 0.0 0.00 75.3 24.0 81.6 0.9
2018 06 12 22:00 264.8 0.0 0.00 74.0 23.4 85.6 0.2
2018 06 12 23:00 264.3 0.0 0.00 73.7 23.2 88.5 0.6
2018 06 12 24:00 263.4 0.0 0.00 74.2 23.5 80.9 2.3
2018 06 13 1:00 264.0 0.0 0.00 72.8 22.7 83.2 2.8
2018 06 13 2:00 265.8 0.0 0.00 71.6 22.0 86.3 0.6
2018 06 13 3:00 268.4 0.0 0.00 70.0 21.1 95.7 0.0
2018 06 13 4:00 276.9 0.0 0.00 68.4 20.2 99.8 0.0
2018 06 13 5:00 Wet 286.2 0.0 0.00 67.3 19.6 99.8 0.6
2018 06 13 6:00 Wet 286.7 0.0 0.00 67.4 19.7 99.8 0.5
2018 06 13 7:00 265.8 0.0 0.00 70.9 21.6 96.2 0.3
2018 06 13 8:00 262.4 0.0 0.00 73.9 23.3 83.4 0.8
2018 06 13 9:00 260.6 0.0 0.00 77.5 25.3 74.61 1.3
2018 06 13 10:00 259.9 0.0 0.00 80.8 27.1 68 3.4
2018 06 13 11:00 260.1 0.0 0.00 83.0 28.4 62.64 2.4
2018 06 13 12:00 259.3 0.0 0.00 84.5 29.2 59.9 1.7
2018 06 13 13:00 258.5 0.0 0.00 86.9 30.5 56.79 1.3
2018 06 13 14:00 258.3 0.0 0.00 87.1 30.6 55.89 1.6
2018 06 13 15:00 257.9 0.0 0.00 87.1 30.6 51.37 5.8
2018 06 13 16:00 257.9 0.0 0.00 85.6 29.8 52.57 4.8
2018 06 13 17:00 257.5 0.0 0.00 86.6 30.3 51.98 5.0
2018 06 13 18:00 258.3 0.0 0.00 85.8 29.9 59.6 4.3
2018 06 13 19:00 259.5 0.0 0.00 84.1 29.0 64.74 3.5
2018 06 13 20:00 261.2 0.0 0.00 80.6 27.0 71.97 2.6
2018 06 13 21:00 262.7 0.0 0.00 77.5 25.3 77.25 2.2
2018 06 13 22:00 263.2 0.0 0.00 75.9 24.4 79.37 2.3
2018 06 13 23:00 263.8 0.0 0.00 74.9 23.8 82.8 3.1
2018 06 13 24:00 265.3 0.0 0.00 73.7 23.2 92.1 0.6
2018 06 14 1:00 267.1 0.0 0.00 73.1 22.9 99.8 1.3
2018 06 14 2:00 267.4 0.0 0.00 73.9 23.3 91.5 0.5
2018 06 14 3:00 267.1 0.0 0.00 72.6 22.6 99.3 1.8
2018 06 14 4:00 266.6 0.0 0.00 72.6 22.6 99.8 1.7
2018 06 14 5:00 268.9 0.0 0.00 71.6 22.0 99.8 1.5
2018 06 14 6:00 266.1 0.0 0.00 72.9 22.7 94.4 2.9
2018 06 14 7:00 261.9 0.0 0.00 76.9 24.9 76.37 4.6
2018 06 14 8:00 260.5 0.0 0.00 80.8 27.1 65.15 8.6
2018 06 14 9:00 259.7 0.0 0.00 83.6 28.7 58.94 10.9
2018 06 14 10:00 259.3 0.0 0.00 85.6 29.8 54.19 11.6
2018 06 14 11:00 258.9 0.0 0.00 87.3 30.8 50.89 10.8
2018 06 14 12:00 258.3 0.0 0.00 89.2 31.8 47.76 8.8
2018 06 14 13:00 257.6 0.0 0.00 90.3 32.4 45.63 7.7
2018 06 14 14:00 257.2 0.0 0.00 90.7 32.6 44.21 7.7
2018 06 14 15:00 256.7 0.0 0.00 91.5 33.0 42.29 8.5
2018 06 14 16:00 256.6 0.0 0.00 91.5 33.1 42.36 8.5
2018 06 14 17:00 256.3 0.0 0.00 91.2 32.9 43 7.9
2018 06 14 18:00 256.8 0.0 0.00 90.2 32.4 43.96 6.2
2018 06 14 19:00 257.9 0.0 0.00 88.1 31.2 49.8 3.2
2018 06 14 20:00 259.3 0.0 0.00 84.3 29.1 57.52 5.0
2018 06 14 21:00 260.1 0.0 0.00 76.8 24.9 65.9 8.4
2018 06 14 22:00 260.3 0.0 0.00 74.8 23.8 66.12 6.0
2018 06 14 23:00 261.0 0.0 0.00 74.8 23.8 72.27 5.3
2018 06 14 24:00 263.7 0.0 0.00 71.9 22.1 82.2 1.5
2018 06 15 1:00 264.0 0.0 0.00 71.5 21.9 84.7 4.2
2018 06 15 2:00 265.5 0.0 0.00 70.6 21.4 86.5 2.8
2018 06 15 3:00 267.1 0.0 0.00 69.9 21.1 96 3.1
2018 06 15 4:00 267.4 0.0 0.00 70.1 21.2 99.6 2.3
2018 06 15 5:00 264.9 0.0 0.00 71.7 22.1 83.6 3.7
2018 06 15 6:00 263.7 0.0 0.00 71.7 22.1 82.9 3.9
2018 06 15 7:00 261.3 0.0 0.00 76.0 24.4 73.8 5.4
2018 06 15 8:00 260.1 0.0 0.00 80.0 26.7 65.61 8.9
2018 06 15 9:00 259.2 0.0 0.00 83.2 28.4 59.6 9.6
2018 06 15 10:00 258.9 0.0 0.00 85.7 29.9 55.08 9.0
2018 06 15 11:00 258.5 0.0 0.00 87.7 31.0 49.21 10.4
2018 06 15 12:00 258.0 0.0 0.00 88.6 31.5 48.05 9.2
2018 06 15 13:00 257.4 0.0 0.00 89.7 32.1 45.62 8.6
2018 06 15 14:00 257.4 0.0 0.00 88.8 31.5 45.88 7.2
2018 06 15 15:00 256.6 0.0 0.00 91.5 33.0 42.28 9.3
2018 06 15 16:00 256.2 0.0 0.00 91.7 33.1 42.17 9.2
2018 06 15 17:00 256.1 0.0 0.00 91.3 32.9 42.27 8.9
2018 06 15 18:00 256.6 0.0 0.00 89.7 32.1 44.08 8.4
2018 06 15 19:00 257.6 0.0 0.00 87.2 30.7 48.83 6.5
2018 06 15 20:00 259.1 0.0 0.00 80.5 26.9 61.49 5.1
2018 06 15 21:00 260.8 0.0 0.00 77.3 25.2 70.23 3.0
2018 06 15 22:00 262.0 0.0 0.00 74.9 23.8 78.44 2.8
2018 06 15 23:00 261.7 0.0 0.00 76.4 24.7 71.6 4.3
2018 06 15 24:00 261.7 0.0 0.00 76.5 24.7 71.52 4.6
2018 06 16 1:00 261.7 0.0 0.00 76.0 24.5 71.45 4.9
2018 06 16 2:00 261.8 0.0 0.00 75.1 23.9 72.47 4.2
2018 06 16 3:00 263.0 0.0 0.00 72.1 22.3 79.44 2.7
2018 06 16 4:00 264.6 0.0 0.00 70.6 21.4 83.6 2.3
2018 06 16 5:00 264.7 0.0 0.00 70.3 21.3 84.4 3.3
2018 06 16 6:00 262.8 0.0 0.00 72.4 22.4 79.63 4.4
2018 06 16 7:00 260.6 0.0 0.00 77.3 25.2 68.57 7.2
2018 06 16 8:00 259.6 0.0 0.00 80.6 27.0 63.22 10.9
2018 06 16 9:00 259.0 0.0 0.00 83.4 28.5 59.94 11.1
2018 06 16 10:00 258.9 0.0 0.00 85.6 29.8 56.71 10.2
2018 06 16 11:00 258.7 0.0 0.00 87.0 30.5 53.2 10.4
2018 06 16 12:00 257.8 0.0 0.00 88.9 31.6 47.57 10.5
2018 06 16 13:00 257.0 0.0 0.00 90.7 32.6 42.91 9.3
2018 06 16 14:00 256.3 0.0 0.00 92.0 33.3 40.32 9.2
2018 06 16 15:00 256.3 0.0 0.00 90.8 32.7 41.68 7.9
2018 06 16 16:00 256.4 0.0 0.00 90.7 32.6 42.4 7.1
2018 06 16 17:00 256.2 0.0 0.00 91.2 32.9 42.48 10.0
2018 06 16 18:00 256.3 0.0 0.00 90.4 32.4 42.71 8.6
2018 06 16 19:00 257.2 0.0 0.00 88.4 31.4 45.26 5.6
2018 06 16 20:00 258.6 0.0 0.00 83.8 28.8 54.41 3.9
2018 06 16 21:00 259.6 0.0 0.00 80.8 27.1 60.95 3.9
2018 06 16 22:00 260.3 0.0 0.00 78.4 25.8 67.42 5.5
2018 06 16 23:00 260.4 0.0 0.00 78.4 25.8 69.09 6.0
2018 06 16 24:00 261.1 0.0 0.00 76.9 24.9 72.7 5.5
2018 06 17 1:00 261.7 0.0 0.00 76.2 24.5 73.7 5.3
2018 06 17 2:00 261.7 0.0 0.00 75.9 24.4 73.6 4.9
2018 06 17 3:00 262.0 0.0 0.00 74.3 23.5 77.34 3.2
2018 06 17 4:00 262.8 0.0 0.00 73.1 22.8 80.8 4.0
2018 06 17 5:00 263.1 0.0 0.00 72.5 22.5 82.4 4.3
2018 06 17 6:00 262.3 0.0 0.00 74.2 23.5 79.21 4.4
2018 06 17 7:00 260.4 0.0 0.00 77.6 25.4 73.11 6.5
2018 06 17 8:00 259.5 0.0 0.00 80.2 26.8 67.63 8.1
2018 06 17 9:00 258.9 0.0 0.00 83.5 28.6 59.17 9.6
2018 06 17 10:00 258.4 0.0 0.00 85.8 29.9 54.61 9.8
2018 06 17 11:00 258.3 0.0 0.00 87.2 30.7 51.15 10.6
2018 06 17 12:00 257.4 0.0 0.00 88.7 31.5 48.96 8.3
2018 06 17 13:00 257.3 0.0 0.00 88.8 31.6 47.98 8.4
2018 06 17 14:00 256.8 0.0 0.00 90.0 32.2 45.67 8.4
2018 06 17 15:00 256.2 0.0 0.00 90.9 32.7 42.65 8.5
2018 06 17 16:00 255.7 0.0 0.00 91.5 33.1 41.38 8.7
2018 06 17 17:00 255.9 0.0 0.00 90.2 32.3 45.4 8.5
2018 06 17 18:00 256.6 0.0 0.00 89.0 31.7 46.5 7.2
2018 06 17 19:00 257.3 0.0 0.00 88.5 31.4 47.49 7.1
2018 06 17 20:00 258.1 0.0 0.00 85.7 29.8 52.44 4.2
2018 06 17 21:00 259.2 0.0 0.00 82.0 27.8 59.7 3.9
2018 06 17 22:00 260.3 0.0 0.00 78.9 26.1 68.61 4.3
2018 06 17 23:00 261.0 0.0 0.00 77.2 25.1 72.42 5.1
2018 06 17 24:00 261.4 0.0 0.00 76.9 24.9 72.45 4.5
2018 06 18 1:00 261.1 0.0 0.00 77.1 25.1 70.6 5.3
2018 06 18 2:00 261.1 0.0 0.00 76.6 24.8 71.57 5.7
2018 06 18 3:00 261.6 0.0 0.00 75.9 24.4 73.53 5.5
2018 06 18 4:00 262.0 0.0 0.00 74.5 23.6 77.44 3.3
2018 06 18 5:00 265.0 0.0 0.00 72.4 22.4 83 0.4
2018 06 18 6:00 263.6 0.0 0.00 72.0 22.2 84.7 2.9
2018 06 18 7:00 260.7 0.0 0.00 75.7 24.3 77.91 4.3
2018 06 18 8:00 259.4 0.0 0.00 79.0 26.1 68.99 8.3
2018 06 18 9:00 259.2 0.0 0.00 80.9 27.2 63.71 9.1
2018 06 18 10:00 258.8 0.0 0.00 83.0 28.4 59.62 9.9
2018 06 18 11:00 258.5 0.0 0.00 84.5 29.2 56.65 9.7
2018 06 18 12:00 257.8 0.0 0.00 85.9 30.0 53.31 8.9
2018 06 18 13:00 257.4 0.0 0.00 87.3 30.7 50.52 8.7
2018 06 18 14:00 257.0 0.0 0.00 88.3 31.3 48.58 8.6
2018 06 18 15:00 256.8 0.0 0.00 88.4 31.3 46.98 10.1
2018 06 18 16:00 256.4 0.0 0.00 88.3 31.3 46.52 9.6
2018 06 18 17:00 256.2 0.0 0.00 87.6 30.9 47.03 10.2
2018 06 18 18:00 256.8 0.0 0.00 86.9 30.5 47.29 11.3
2018 06 18 19:00 257.5 0.0 0.00 85.6 29.8 48.72 8.2
2018 06 18 20:00 258.5 0.0 0.00 82.4 28.0 55.58 4.7
2018 06 18 21:00 259.7 0.0 0.00 79.0 26.1 62.72 3.9
2018 06 18 22:00 260.9 0.0 0.00 76.5 24.7 68.97 1.8
2018 06 18 23:00 262.4 0.0 0.00 73.5 23.1 76.21 0.6
2018 06 18 24:00 262.2 0.0 0.00 73.6 23.1 75.39 3.6
2018 06 19 1:00 261.7 0.0 0.00 73.8 23.2 73.88 3.9
2018 06 19 2:00 262.2 0.0 0.00 72.6 22.5 76.51 2.8
2018 06 19 3:00 263.0 0.0 0.00 71.3 21.8 79.87 2.3
2018 06 19 4:00 263.1 0.0 0.00 70.9 21.6 82.1 1.8
2018 06 19 5:00 263.3 0.0 0.00 71.0 21.6 83.7 2.6
2018 06 19 6:00 262.5 0.0 0.00 72.1 22.3 82.3 4.7
CST mV in mm F C % mph
Year Month Day Hour Leaf Wetness Total
Precipitation
Avg. Temp Avg. Rel.
Humidity
Wind
Speed

Back to the top of the page